Observation data for Odell on 06/25/2019      Previous  Date       Current Mesonet Observations  Soil Data  Daily Summary Page  Observations in Plain Language
KOD1 250500Z 11009KT 25/20 A2991 RMK A01 T02500204  RH  075%=      5-min Rain = 0
KOD1 250501Z 11009KT 25/20 A2991 RMK A01 T02510204  RH  075%=      5-min Rain = 0
KOD1 250502Z 11008KT 25/20 A2991 RMK A01 T02510204  RH  076%=      5-min Rain = 0
KOD1 250503Z 11009KT 25/20 A2991 RMK A01 T02500204  RH  076%=      5-min Rain = 0
KOD1 250504Z 11009KT 25/21 A2991 RMK A01 T02500205  RH  076%=      5-min Rain = 0
KOD1 250505Z 11009KT 25/20 A2991 RMK A01 T02490204  RH  076%=      5-min Rain = 0
KOD1 250506Z 11009KT 25/20 A2991 RMK A01 T02490204  RH  076%=      5-min Rain = 0
KOD1 250507Z 11008KT 25/20 A2991 RMK A01 T02490204  RH  076%=      5-min Rain = 0
KOD1 250508Z 11009KT 25/21 A2992 RMK A01 T02500205  RH  076%=      5-min Rain = 0
KOD1 250509Z 11009KT 25/20 A2992 RMK A01 T02490204  RH  076%=      5-min Rain = 0
KOD1 250510Z 11009KT 25/20 A2992 RMK A01 T02490204  RH  076%=      5-min Rain = 0
KOD1 250511Z 11008KT 25/20 A2991 RMK A01 T02490204  RH  076%=      5-min Rain = 0
KOD1 250512Z 11008KT 25/21 A2991 RMK A01 T02490205  RH  076%=      5-min Rain = 0
KOD1 250513Z 12008KT 25/20 A2991 RMK A01 T02490204  RH  076%=      5-min Rain = 0
KOD1 250514Z 12010KT 25/20 A2991 RMK A01 T02490204  RH  076%=      5-min Rain = 0
KOD1 250515Z 12009KT 25/20 A2991 RMK A01 T02490204  RH  076%=      5-min Rain = 0
KOD1 250516Z 11009KT 25/20 A2991 RMK A01 T02490204  RH  076%=      5-min Rain = 0
KOD1 250517Z 11008KT 25/20 A2991 RMK A01 T02480204  RH  076%=      5-min Rain = 0
KOD1 250518Z 11007KT 25/20 A2991 RMK A01 T02480204  RH  077%=      5-min Rain = 0
KOD1 250519Z 11008KT 25/20 A2991 RMK A01 T02480204  RH  077%=      5-min Rain = 0
KOD1 250520Z 12008KT 25/20 A2991 RMK A01 T02480204  RH  077%=      5-min Rain = 0
KOD1 250521Z 11008KT 25/20 A2991 RMK A01 T02470204  RH  077%=      5-min Rain = 0
KOD1 250522Z 11009KT 25/20 A2991 RMK A01 T02470204  RH  077%=      5-min Rain = 0
KOD1 250523Z 11008KT 25/20 A2991 RMK A01 T02470204  RH  077%=      5-min Rain = 0
KOD1 250524Z 11009KT 25/20 A2991 RMK A01 T02470204  RH  077%=      5-min Rain = 0
KOD1 250525Z 11009KT 25/20 A2991 RMK A01 T02470204  RH  077%=      5-min Rain = 0
KOD1 250526Z 11008KT 25/20 A2991 RMK A01 T02460204  RH  077%=      5-min Rain = 0
KOD1 250527Z 11010KT 25/20 A2991 RMK A01 T02460203  RH  077%=      5-min Rain = 0
KOD1 250528Z 11010KT 25/20 A2991 RMK A01 T02460203  RH  077%=      5-min Rain = 0
KOD1 250529Z 11010KT 25/20 A2991 RMK A01 T02460203  RH  077%=      5-min Rain = 0
KOD1 250530Z 11010KT 25/20 A2991 RMK A01 T02460203  RH  077%=      5-min Rain = 0
KOD1 250531Z 11009KT 25/20 A2991 RMK A01 T02460203  RH  077%=      5-min Rain = 0
KOD1 250532Z 11010KT 25/20 A2991 RMK A01 T02460204  RH  077%=      5-min Rain = 0
KOD1 250533Z 11011KT 25/20 A2991 RMK A01 T02450203  RH  077%=      5-min Rain = 0
KOD1 250534Z 12009KT 25/20 A2991 RMK A01 T02450203  RH  077%=      5-min Rain = 0
KOD1 250535Z 12010KT 25/20 A2991 RMK A01 T02450204  RH  078%=      5-min Rain = 0
KOD1 250536Z 12011KT 25/20 A2991 RMK A01 T02460204  RH  077%=      5-min Rain = 0
KOD1 250537Z 12010KT 25/20 A2991 RMK A01 T02460204  RH  077%=      5-min Rain = 0
KOD1 250538Z 12010KT 25/20 A2991 RMK A01 T02460204  RH  077%=      5-min Rain = 0
KOD1 250539Z 12010KT 25/20 A2991 RMK A01 T02460204  RH  077%=      5-min Rain = 0
KOD1 250540Z 12011KT 25/20 A2991 RMK A01 T02460204  RH  078%=      5-min Rain = 0
KOD1 250541Z 12010KT 25/20 A2991 RMK A01 T02450204  RH  077%=      5-min Rain = 0
KOD1 250542Z 12011KT 25/20 A2991 RMK A01 T02460204  RH  078%=      5-min Rain = 0
KOD1 250543Z 13011KT 25/20 A2991 RMK A01 T02450204  RH  078%=      5-min Rain = 0
KOD1 250544Z 12011KT 25/20 A2991 RMK A01 T02460204  RH  078%=      5-min Rain = 0
KOD1 250545Z 13012KT 25/20 A2991 RMK A01 T02460204  RH  078%=      5-min Rain = 0
KOD1 250546Z 13010KT 25/21 A2991 RMK A01 T02460205  RH  078%=      5-min Rain = 0
KOD1 250547Z 13011KT 25/21 A2991 RMK A01 T02460205  RH  078%=      5-min Rain = 0
KOD1 250548Z 12010KT 25/21 A2991 RMK A01 T02460205  RH  078%=      5-min Rain = 0
KOD1 250549Z 13010KT 25/21 A2991 RMK A01 T02460205  RH  078%=      5-min Rain = 0
KOD1 250550Z 13010KT 25/21 A2991 RMK A01 T02450205  RH  078%=      5-min Rain = 0
KOD1 250551Z 12010KT 25/21 A2991 RMK A01 T02450205  RH  078%=      5-min Rain = 0
KOD1 250552Z 12010KT 25/21 A2991 RMK A01 T02450205  RH  078%=      5-min Rain = 0
KOD1 250553Z 12011KT 25/21 A2991 RMK A01 T02450205  RH  078%=      5-min Rain = 0
KOD1 250554Z 12011KT 25/21 A2991 RMK A01 T02450205  RH  079%=      5-min Rain = 0
KOD1 250555Z 12010KT 25/21 A2991 RMK A01 T02450206  RH  079%=      5-min Rain = 0
KOD1 250556Z 12009KT 25/21 A2991 RMK A01 T02450206  RH  079%=      5-min Rain = 0
KOD1 250557Z 12010KT 24/21 A2991 RMK A01 T02440205  RH  079%=      5-min Rain = 0
KOD1 250558Z 12010KT 24/21 A2991 RMK A01 T02440205  RH  079%=      5-min Rain = 0
KOD1 250559Z 12011KT 24/21 A2991 RMK A01 T02440206  RH  079%=      5-min Rain = 0
KOD1 250600Z 12009KT 24/21 A2991 RMK A01 T02440206  RH  079%=      5-min Rain = 0
KOD1 250601Z 12010KT 24/21 A2991 RMK A01 T02440206  RH  079%=      5-min Rain = 0
KOD1 250602Z 12010KT 24/21 A2991 RMK A01 T02440206  RH  079%=      5-min Rain = 0
KOD1 250603Z 13011KT 24/21 A2991 RMK A01 T02440206  RH  079%=      5-min Rain = 0
KOD1 250604Z 13009KT 25/21 A299 RMK A01 T02450206  RH  079%=      5-min Rain = 0
KOD1 250605Z 13009KT 24/21 A299 RMK A01 T02440206  RH  079%=      5-min Rain = 0
KOD1 250606Z 13008KT 24/21 A299 RMK A01 T02440206  RH  079%=      5-min Rain = 0
KOD1 250607Z 12008KT 24/21 A299 RMK A01 T02440206  RH  080%=      5-min Rain = 0
KOD1 250608Z 12009KT 24/21 A299 RMK A01 T02440206  RH  080%=      5-min Rain = 0
KOD1 250609Z 12008KT 24/21 A299 RMK A01 T02440206  RH  080%=      5-min Rain = 0
KOD1 250610Z 12009KT 24/21 A299 RMK A01 T02430207  RH  080%=      5-min Rain = 0
KOD1 250611Z 12009KT 24/21 A299 RMK A01 T02440207  RH  080%=      5-min Rain = 0
KOD1 250612Z 12009KT 24/21 A299 RMK A01 T02440206  RH  080%=      5-min Rain = 0
KOD1 250613Z 11009KT 24/21 A299 RMK A01 T02440207  RH  080%=      5-min Rain = 0
KOD1 250614Z 12009KT 24/21 A299 RMK A01 T02440207  RH  080%=      5-min Rain = 0
KOD1 250615Z 12008KT 24/21 A299 RMK A01 T02440207  RH  080%=      5-min Rain = 0
KOD1 250616Z 12009KT 24/21 A2991 RMK A01 T02440207  RH  080%=      5-min Rain = 0
KOD1 250617Z 12009KT 24/21 A2991 RMK A01 T02430207  RH  080%=      5-min Rain = 0
KOD1 250618Z 12009KT 24/21 A2991 RMK A01 T02440207  RH  080%=      5-min Rain = 0
KOD1 250619Z 12009KT 24/21 A2991 RMK A01 T02440207  RH  080%=      5-min Rain = 0
KOD1 250620Z 12009KT 24/21 A2991 RMK A01 T02440207  RH  080%=      5-min Rain = 0
KOD1 250621Z 13008KT 24/21 A2991 RMK A01 T02440207  RH  080%=      5-min Rain = 0
KOD1 250622Z 13009KT 24/21 A2991 RMK A01 T02430207  RH  080%=      5-min Rain = 0
KOD1 250623Z 13009KT 24/21 A2991 RMK A01 T02430207  RH  080%=      5-min Rain = 0
KOD1 250624Z 13008KT 24/21 A2991 RMK A01 T02430207  RH  081%=      5-min Rain = 0
KOD1 250625Z 13007KT 24/21 A2991 RMK A01 T02430208  RH  081%=      5-min Rain = 0
KOD1 250626Z 13007KT 24/21 A2991 RMK A01 T02420207  RH  081%=      5-min Rain = 0
KOD1 250627Z 13008KT 24/21 A2991 RMK A01 T02420207  RH  081%=      5-min Rain = 0
KOD1 250628Z 13008KT 24/21 A2991 RMK A01 T02420207  RH  081%=      5-min Rain = 0
KOD1 250629Z 13007KT 24/21 A2991 RMK A01 T02420207  RH  081%=      5-min Rain = 0
KOD1 250630Z 13007KT 24/21 A2991 RMK A01 T02420207  RH  081%=      5-min Rain = 0
KOD1 250631Z 13008KT 24/21 A2991 RMK A01 T02420207  RH  081%=      5-min Rain = 0
KOD1 250632Z 13008KT 24/21 A2991 RMK A01 T02420208  RH  081%=      5-min Rain = 0
KOD1 250633Z 12006KT 24/21 A2991 RMK A01 T02420207  RH  081%=      5-min Rain = 0
KOD1 250634Z 13007KT 24/21 A2991 RMK A01 T02420207  RH  081%=      5-min Rain = 0
KOD1 250635Z 13006KT 24/21 A2991 RMK A01 T02420207  RH  081%=      5-min Rain = 0
KOD1 250636Z 13007KT 24/21 A2991 RMK A01 T02410207  RH  081%=      5-min Rain = 0
KOD1 250637Z 13008KT 24/21 A2991 RMK A01 T02410207  RH  082%=      5-min Rain = 0
KOD1 250638Z 13007KT 24/21 A2991 RMK A01 T02410207  RH  082%=      5-min Rain = 0
KOD1 250639Z 13007KT 24/21 A2991 RMK A01 T02400207  RH  082%=      5-min Rain = 0
KOD1 250640Z 13007KT 24/21 A2991 RMK A01 T02400208  RH  082%=      5-min Rain = 0
KOD1 250641Z 13007KT 24/21 A2991 RMK A01 T02400207  RH  082%=      5-min Rain = 0
KOD1 250642Z 13007KT 24/21 A2991 RMK A01 T02400208  RH  082%=      5-min Rain = 0
KOD1 250643Z 13007KT 24/21 A2991 RMK A01 T02390207  RH  082%=      5-min Rain = 0
KOD1 250644Z 13007KT 24/21 A2991 RMK A01 T02390207  RH  082%=      5-min Rain = 0
KOD1 250645Z 14007KT 24/21 A2991 RMK A01 T02390207  RH  082%=      5-min Rain = 0
KOD1 250646Z 13007KT 24/21 A2991 RMK A01 T02400207  RH  082%=      5-min Rain = 0
KOD1 250647Z 13006KT 24/21 A2991 RMK A01 T02400208  RH  082%=      5-min Rain = 0
KOD1 250648Z 13006KT 24/21 A2991 RMK A01 T02400208  RH  082%=      5-min Rain = 0
KOD1 250649Z 12006KT 24/21 A2991 RMK A01 T02390208  RH  083%=      5-min Rain = 0
KOD1 250650Z 12006KT 24/21 A299 RMK A01 T02390207  RH  083%=      5-min Rain = 0
KOD1 250651Z 12006KT 24/21 A299 RMK A01 T02380208  RH  083%=      5-min Rain = 0
KOD1 250652Z 12006KT 24/21 A299 RMK A01 T02380207  RH  083%=      5-min Rain = 0
KOD1 250653Z 12007KT 24/21 A2991 RMK A01 T02380208  RH  083%=      5-min Rain = 0
KOD1 250654Z 12007KT 24/21 A299 RMK A01 T02370207  RH  083%=      5-min Rain = 0
KOD1 250655Z 12006KT 24/21 A299 RMK A01 T02370208  RH  084%=      5-min Rain = 0
KOD1 250656Z 12008KT 24/21 A299 RMK A01 T02370208  RH  084%=      5-min Rain = 0
KOD1 250657Z 12007KT 24/21 A299 RMK A01 T02370208  RH  084%=      5-min Rain = 0
KOD1 250658Z 12007KT 24/21 A299 RMK A01 T02370208  RH  084%=      5-min Rain = 0
KOD1 250659Z 13007KT 24/21 A299 RMK A01 T02370208  RH  084%=      5-min Rain = 0
KOD1 250700Z 13007KT 24/21 A299 RMK A01 T02370208  RH  084%=      5-min Rain = 0
KOD1 250701Z 13007KT 24/21 A299 RMK A01 T02370208  RH  084%=      5-min Rain = 0
KOD1 250702Z 13007KT 24/21 A299 RMK A01 T02360208  RH  084%=      5-min Rain = 0
KOD1 250703Z 12006KT 24/21 A299 RMK A01 T02360208  RH  084%=      5-min Rain = 0
KOD1 250704Z 13007KT 24/21 A299 RMK A01 T02360208  RH  084%=      5-min Rain = 0
KOD1 250705Z 12007KT 24/21 A299 RMK A01 T02360208  RH  084%=      5-min Rain = 0
KOD1 250706Z 12008KT 24/21 A299 RMK A01 T02360208  RH  084%=      5-min Rain = 0
KOD1 250707Z 12008KT 24/21 A299 RMK A01 T02350207  RH  085%=      5-min Rain = 0
KOD1 250708Z 11008KT 24/21 A299 RMK A01 T02350208  RH  085%=      5-min Rain = 0
KOD1 250709Z 11009KT 24/21 A2989 RMK A01 T02350207  RH  084%=      5-min Rain = 0
KOD1 250710Z 11008KT 24/21 A2989 RMK A01 T02350207  RH  084%=      5-min Rain = 0
KOD1 250711Z 11008KT 24/21 A2989 RMK A01 T02350207  RH  085%=      5-min Rain = 0
KOD1 250712Z 11008KT 23/21 A2989 RMK A01 T02340208  RH  085%=      5-min Rain = 0
KOD1 250713Z 11007KT 23/21 A2989 RMK A01 T02340208  RH  085%=      5-min Rain = 0
KOD1 250714Z 12006KT 23/21 A2989 RMK A01 T02340208  RH  085%=      5-min Rain = 0
KOD1 250715Z 12007KT 23/21 A2989 RMK A01 T02340208  RH  085%=      5-min Rain = 0
KOD1 250716Z 12007KT 23/21 A2989 RMK A01 T02340208  RH  085%=      5-min Rain = 0
KOD1 250717Z 12007KT 23/21 A2989 RMK A01 T02340208  RH  085%=      5-min Rain = 0
KOD1 250718Z 12007KT 23/21 A2989 RMK A01 T02340208  RH  085%=      5-min Rain = 0
KOD1 250719Z 11007KT 23/21 A2989 RMK A01 T02340208  RH  085%=      5-min Rain = 0
KOD1 250720Z 12008KT 23/21 A2989 RMK A01 T02340208  RH  085%=      5-min Rain = 0
KOD1 250721Z 12007KT 23/21 A2989 RMK A01 T02340208  RH  085%=      5-min Rain = 0
KOD1 250722Z 12007KT 23/21 A2989 RMK A01 T02340208  RH  085%=      5-min Rain = 0
KOD1 250723Z 12007KT 23/21 A2989 RMK A01 T02340208  RH  086%=      5-min Rain = 0
KOD1 250724Z 12006KT 23/21 A2989 RMK A01 T02340208  RH  086%=      5-min Rain = 0
KOD1 250725Z 12006KT 23/21 A2989 RMK A01 T02340208  RH  086%=      5-min Rain = 0
KOD1 250726Z 11006KT 23/21 A2989 RMK A01 T02340208  RH  086%=      5-min Rain = 0
KOD1 250727Z 12007KT 23/21 A2989 RMK A01 T02340208  RH  086%=      5-min Rain = 0
KOD1 250728Z 11007KT 23/21 A2989 RMK A01 T02340208  RH  086%=      5-min Rain = 0
KOD1 250729Z 12006KT 23/21 A299 RMK A01 T02330208  RH  086%=      5-min Rain = 0
KOD1 250730Z 12006KT 23/21 A299 RMK A01 T02330208  RH  086%=      5-min Rain = 0
KOD1 250731Z 12007KT 23/21 A299 RMK A01 T02330208  RH  086%=      5-min Rain = 0
KOD1 250732Z 11006KT 23/21 A299 RMK A01 T02330208  RH  086%=      5-min Rain = 0
KOD1 250733Z 11006KT 23/21 A299 RMK A01 T02330208  RH  086%=      5-min Rain = 0
KOD1 250734Z 12006KT 23/21 A299 RMK A01 T02320208  RH  086%=      5-min Rain = 0
KOD1 250735Z 12006KT 23/21 A299 RMK A01 T02320208  RH  086%=      5-min Rain = 0
KOD1 250736Z 12006KT 23/21 A299 RMK A01 T02310208  RH  087%=      5-min Rain = 0
KOD1 250737Z 12006KT 23/21 A299 RMK A01 T02310208  RH  087%=      5-min Rain = 0
KOD1 250738Z 11007KT 23/21 A2991 RMK A01 T02310208  RH  087%=      5-min Rain = 0
KOD1 250739Z 11007KT 23/21 A299 RMK A01 T02310208  RH  087%=      5-min Rain = 0
KOD1 250740Z 11007KT 23/21 A299 RMK A01 T02300208  RH  087%=      5-min Rain = 0
KOD1 250741Z 11007KT 23/21 A299 RMK A01 T02300208  RH  088%=      5-min Rain = 0
KOD1 250742Z 11006KT 23/21 A299 RMK A01 T02300208  RH  088%=      5-min Rain = 0
KOD1 250743Z 11006KT 23/21 A299 RMK A01 T02300208  RH  088%=      5-min Rain = 0
KOD1 250744Z 11006KT 23/21 A299 RMK A01 T02290208  RH  088%=      5-min Rain = 0
KOD1 250745Z 12006KT 23/21 A299 RMK A01 T02290208  RH  088%=      5-min Rain = 0
KOD1 250746Z 11006KT 23/21 A299 RMK A01 T02290208  RH  088%=      5-min Rain = 0
KOD1 250747Z 12006KT 23/21 A299 RMK A01 T02300209  RH  088%=      5-min Rain = 0
KOD1 250748Z 12007KT 23/21 A299 RMK A01 T02300208  RH  088%=      5-min Rain = 0
KOD1 250749Z 12007KT 23/21 A299 RMK A01 T02290208  RH  088%=      5-min Rain = 0
KOD1 250750Z 12007KT 23/21 A299 RMK A01 T02290208  RH  088%=      5-min Rain = 0
KOD1 250751Z 12008KT 23/21 A299 RMK A01 T02300209  RH  088%=      5-min Rain = 0
KOD1 250752Z 12007KT 23/21 A299 RMK A01 T02300208  RH  088%=      5-min Rain = 0
KOD1 250753Z 11006KT 23/21 A299 RMK A01 T02290208  RH  088%=      5-min Rain = 0
KOD1 250754Z 12006KT 23/21 A299 RMK A01 T02290208  RH  088%=      5-min Rain = 0
KOD1 250755Z 12007KT 23/21 A299 RMK A01 T02280208  RH  088%=      5-min Rain = 0
KOD1 250756Z 12008KT 23/21 A2991 RMK A01 T02280209  RH  089%=      5-min Rain = 0
KOD1 250757Z 11008KT 23/21 A2991 RMK A01 T02280208  RH  088%=      5-min Rain = 0
KOD1 250758Z 11007KT 23/21 A299 RMK A01 T02280208  RH  088%=      5-min Rain = 0
KOD1 250759Z 11007KT 23/21 A299 RMK A01 T02280209  RH  089%=      5-min Rain = 0
KOD1 250800Z 11007KT 23/21 A2991 RMK A01 T02280208  RH  089%=      5-min Rain = 0
KOD1 250801Z 12006KT 23/21 A2991 RMK A01 T02280208  RH  089%=      5-min Rain = 0
KOD1 250802Z 11007KT 23/21 A2991 RMK A01 T02270208  RH  089%=      5-min Rain = 0
KOD1 250803Z 11007KT 23/21 A2991 RMK A01 T02260208  RH  089%=      5-min Rain = 0
KOD1 250804Z 12007KT 23/21 A2991 RMK A01 T02260208  RH  089%=      5-min Rain = 0
KOD1 250805Z 12007KT 23/21 A2991 RMK A01 T02260208  RH  089%=      5-min Rain = 0
KOD1 250806Z 13008KT 23/21 A2991 RMK A01 T02270208  RH  089%=      5-min Rain = 0
KOD1 250807Z 12007KT 23/21 A2991 RMK A01 T02270209  RH  089%=      5-min Rain = 0
KOD1 250808Z 13007KT 23/21 A2991 RMK A01 T02270208  RH  089%=      5-min Rain = 0
KOD1 250809Z 13007KT 23/21 A2991 RMK A01 T02260208  RH  089%=      5-min Rain = 0
KOD1 250810Z 13006KT 23/21 A2991 RMK A01 T02260208  RH  090%=      5-min Rain = 0
KOD1 250811Z 13006KT 23/21 A2991 RMK A01 T02260208  RH  090%=      5-min Rain = 0
KOD1 250812Z 12006KT 23/21 A2991 RMK A01 T02260208  RH  090%=      5-min Rain = 0
KOD1 250813Z 12007KT 23/21 A2991 RMK A01 T02260208  RH  090%=      5-min Rain = 0
KOD1 250814Z 12006KT 23/21 A2991 RMK A01 T02260208  RH  090%=      5-min Rain = 0
KOD1 250815Z 13006KT 23/21 A2991 RMK A01 T02250208  RH  090%=      5-min Rain = 0
KOD1 250816Z 13006KT 23/21 A2991 RMK A01 T02250208  RH  090%=      5-min Rain = 0
KOD1 250817Z 13006KT 22/21 A2991 RMK A01 T02240208  RH  090%=      5-min Rain = 0
KOD1 250818Z 12007KT 22/21 A2991 RMK A01 T02240208  RH  090%=      5-min Rain = 0
KOD1 250819Z 13007KT 22/21 A2991 RMK A01 T02240208  RH  091%=      5-min Rain = 0
KOD1 250820Z 13007KT 22/21 A2991 RMK A01 T02240208  RH  091%=      5-min Rain = 0
KOD1 250821Z 13007KT 22/21 A2991 RMK A01 T02240208  RH  091%=      5-min Rain = 0
KOD1 250822Z 12007KT 22/21 A2991 RMK A01 T02240208  RH  091%=      5-min Rain = 0
KOD1 250823Z 13007KT 22/21 A2991 RMK A01 T02240208  RH  091%=      5-min Rain = 0
KOD1 250824Z 13006KT 22/21 A2991 RMK A01 T02240208  RH  091%=      5-min Rain = 0
KOD1 250825Z 13006KT 22/21 A2991 RMK A01 T02230208  RH  091%=      5-min Rain = 0
KOD1 250826Z 13006KT 22/21 A2991 RMK A01 T02230208  RH  091%=      5-min Rain = 0
KOD1 250827Z 13006KT 22/21 A2991 RMK A01 T02230208  RH  091%=      5-min Rain = 0
KOD1 250828Z 13006KT 22/21 A2991 RMK A01 T02230207  RH  091%=      5-min Rain = 0
KOD1 250829Z 13007KT 22/21 A2991 RMK A01 T02220208  RH  091%=      5-min Rain = 0
KOD1 250830Z 13006KT 22/21 A2991 RMK A01 T02230208  RH  091%=      5-min Rain = 0
KOD1 250831Z 13007KT 22/21 A2991 RMK A01 T02220208  RH  091%=      5-min Rain = 0
KOD1 250832Z 13006KT 22/21 A2991 RMK A01 T02220207  RH  091%=      5-min Rain = 0
KOD1 250833Z 13007KT 22/21 A2991 RMK A01 T02220207  RH  091%=      5-min Rain = 0
KOD1 250834Z 13007KT 22/21 A2991 RMK A01 T02220207  RH  091%=      5-min Rain = 0
KOD1 250835Z 13006KT 22/21 A2991 RMK A01 T02220207  RH  091%=      5-min Rain = 0
KOD1 250836Z 13006KT 22/21 A2991 RMK A01 T02220207  RH  091%=      5-min Rain = 0
KOD1 250837Z 13006KT 22/21 A2991 RMK A01 T02210207  RH  092%=      5-min Rain = 0
KOD1 250838Z 12006KT 22/21 A2991 RMK A01 T02210207  RH  092%=      5-min Rain = 0
KOD1 250839Z 13006KT 22/21 A2991 RMK A01 T02210207  RH  092%=      5-min Rain = 0
KOD1 250840Z 13006KT 22/21 A2991 RMK A01 T02210207  RH  092%=      5-min Rain = 0
KOD1 250841Z 13007KT 22/21 A2991 RMK A01 T02210206  RH  092%=      5-min Rain = 0
KOD1 250842Z 13006KT 22/21 A2991 RMK A01 T02200206  RH  092%=      5-min Rain = 0
KOD1 250843Z 13006KT 22/21 A2991 RMK A01 T02200206  RH  092%=      5-min Rain = 0
KOD1 250844Z 13006KT 22/21 A2991 RMK A01 T02200206  RH  092%=      5-min Rain = 0
KOD1 250845Z 13006KT 22/21 A2991 RMK A01 T02190206  RH  092%=      5-min Rain = 0
KOD1 250846Z 13006KT 22/21 A2991 RMK A01 T02190206  RH  092%=      5-min Rain = 0
KOD1 250847Z 13006KT 22/21 A2991 RMK A01 T02190206  RH  092%=      5-min Rain = 0
KOD1 250848Z 13005KT 22/21 A2991 RMK A01 T02190206  RH  092%=      5-min Rain = 0
KOD1 250849Z 13006KT 22/21 A2991 RMK A01 T02190206  RH  092%=      5-min Rain = 0
KOD1 250850Z 13005KT 22/21 A2991 RMK A01 T02190206  RH  092%=      5-min Rain = 0
KOD1 250851Z 13005KT 22/21 A2991 RMK A01 T02190206  RH  092%=      5-min Rain = 0
KOD1 250852Z 13005KT 22/21 A2991 RMK A01 T02190205  RH  092%=      5-min Rain = 0
KOD1 250853Z 13005KT 22/21 A2991 RMK A01 T02180205  RH  092%=      5-min Rain = 0
KOD1 250854Z 14005KT 22/21 A2991 RMK A01 T02180205  RH  092%=      5-min Rain = 0
KOD1 250855Z 13004KT 22/21 A2991 RMK A01 T02180205  RH  092%=      5-min Rain = 0
KOD1 250856Z 13005KT 22/21 A2991 RMK A01 T02180205  RH  092%=      5-min Rain = 0
KOD1 250857Z 13005KT 22/21 A2991 RMK A01 T02180205  RH  092%=      5-min Rain = 0
KOD1 250858Z 13005KT 22/20 A2991 RMK A01 T02170204  RH  092%=      5-min Rain = 0
KOD1 250859Z 13005KT 22/20 A2991 RMK A01 T02170204  RH  092%=      5-min Rain = 0
KOD1 250900Z 13005KT 22/20 A2991 RMK A01 T02160203  RH  093%=      5-min Rain = 0
KOD1 250901Z 13005KT 22/20 A2991 RMK A01 T02160204  RH  093%=      5-min Rain = 0
KOD1 250902Z 13005KT 22/20 A2991 RMK A01 T02160204  RH  093%=      5-min Rain = 0
KOD1 250903Z 13005KT 22/20 A2991 RMK A01 T02150203  RH  093%=      5-min Rain = 0
KOD1 250904Z 13005KT 22/20 A2991 RMK A01 T02150203  RH  093%=      5-min Rain = 0
KOD1 250905Z 13005KT 22/20 A2991 RMK A01 T02150203  RH  093%=      5-min Rain = 0
KOD1 250906Z 12004KT 22/20 A2991 RMK A01 T02150203  RH  093%=      5-min Rain = 0
KOD1 250907Z 12004KT 22/20 A2991 RMK A01 T02150203  RH  092%=      5-min Rain = 0
KOD1 250908Z 12004KT 22/20 A2991 RMK A01 T02150203  RH  092%=      5-min Rain = 0
KOD1 250909Z 12004KT 22/20 A2991 RMK A01 T02150203  RH  092%=      5-min Rain = 0
KOD1 250910Z 12004KT 22/20 A2991 RMK A01 T02150203  RH  092%=      5-min Rain = 0
KOD1 250911Z 11004KT 22/20 A2991 RMK A01 T02150202  RH  092%=      5-min Rain = 0
KOD1 250912Z 12003KT 22/20 A2991 RMK A01 T02150202  RH  092%=      5-min Rain = 0
KOD1 250913Z 12004KT 22/20 A2991 RMK A01 T02150201  RH  092%=      5-min Rain = 0
KOD1 250914Z 12004KT 22/20 A2991 RMK A01 T02150201  RH  092%=      5-min Rain = 0
KOD1 250915Z 12004KT 22/20 A2991 RMK A01 T02150201  RH  092%=      5-min Rain = 0
KOD1 250916Z 12003KT 22/20 A2991 RMK A01 T02150201  RH  092%=      5-min Rain = 0
KOD1 250917Z 13003KT 22/20 A2991 RMK A01 T02150201  RH  092%=      5-min Rain = 0
KOD1 250918Z 13003KT 21/20 A2991 RMK A01 T02140200  RH  092%=      5-min Rain = 0
KOD1 250919Z 13003KT 21/20 A2991 RMK A01 T02140200  RH  092%=      5-min Rain = 0
KOD1 250920Z 13003KT 21/20 A2991 RMK A01 T02140200  RH  092%=      5-min Rain = 0
KOD1 250921Z 13004KT 21/20 A2991 RMK A01 T02130200  RH  092%=      5-min Rain = 0
KOD1 250922Z 13004KT 21/20 A2991 RMK A01 T02130200  RH  092%=      5-min Rain = 0
KOD1 250923Z 13005KT 21/20 A2991 RMK A01 T02130200  RH  092%=      5-min Rain = 0
KOD1 250924Z 13005KT 21/20 A2991 RMK A01 T02130199  RH  092%=      5-min Rain = 0
KOD1 250925Z 13005KT 21/20 A2991 RMK A01 T02130199  RH  092%=      5-min Rain = 0
KOD1 250926Z 13005KT 21/20 A2991 RMK A01 T02120199  RH  092%=      5-min Rain = 0
KOD1 250927Z 13005KT 21/20 A2991 RMK A01 T02120199  RH  092%=      5-min Rain = 0
KOD1 250928Z 13005KT 21/20 A2991 RMK A01 T02120199  RH  092%=      5-min Rain = 0
KOD1 250929Z 13004KT 21/20 A2991 RMK A01 T02120199  RH  092%=      5-min Rain = 0
KOD1 250930Z 13005KT 21/20 A2991 RMK A01 T02120199  RH  092%=      5-min Rain = 0
KOD1 250931Z 13005KT 21/20 A2991 RMK A01 T02120199  RH  092%=      5-min Rain = 0
KOD1 250932Z 13005KT 21/20 A2991 RMK A01 T02120200  RH  093%=      5-min Rain = 0
KOD1 250933Z 13005KT 21/20 A2992 RMK A01 T02120199  RH  093%=      5-min Rain = 0
KOD1 250934Z 13005KT 21/20 A2992 RMK A01 T02120200  RH  093%=      5-min Rain = 0
KOD1 250935Z 13005KT 21/20 A2992 RMK A01 T02120199  RH  092%=      5-min Rain = 0
KOD1 250936Z 13005KT 21/20 A2992 RMK A01 T02110199  RH  093%=      5-min Rain = 0
KOD1 250937Z 13005KT 21/20 A2992 RMK A01 T02110199  RH  093%=      5-min Rain = 0
KOD1 250938Z 13005KT 21/20 A2992 RMK A01 T02110199  RH  093%=      5-min Rain = 0
KOD1 250939Z 13005KT 21/20 A2992 RMK A01 T02110199  RH  093%=      5-min Rain = 0
KOD1 250940Z 13006KT 21/20 A2992 RMK A01 T02110200  RH  093%=      5-min Rain = 0
KOD1 250941Z 13006KT 21/20 A2992 RMK A01 T02110200  RH  093%=      5-min Rain = 0
KOD1 250942Z 14005KT 21/20 A2992 RMK A01 T02110200  RH  093%=      5-min Rain = 0
KOD1 250943Z 14005KT 21/20 A2992 RMK A01 T02110199  RH  093%=      5-min Rain = 0
KOD1 250944Z 14005KT 21/20 A2992 RMK A01 T02110199  RH  093%=      5-min Rain = 0
KOD1 250945Z 14005KT 21/20 A2992 RMK A01 T02110199  RH  093%=      5-min Rain = 0
KOD1 250946Z 13006KT 21/20 A2992 RMK A01 T02100198  RH  093%=      5-min Rain = 0
KOD1 250947Z 13006KT 21/20 A2991 RMK A01 T02100198  RH  093%=      5-min Rain = 0
KOD1 250948Z 13007KT 21/20 A2991 RMK A01 T02090198  RH  093%=      5-min Rain = 0
KOD1 250949Z 12007KT 21/20 A2991 RMK A01 T02090199  RH  094%=      5-min Rain = 0
KOD1 250950Z 12007KT 21/20 A2991 RMK A01 T02090199  RH  094%=      5-min Rain = 0
KOD1 250951Z 12007KT 21/20 A2991 RMK A01 T02090199  RH  094%=      5-min Rain = 0
KOD1 250952Z 12007KT 21/20 A2991 RMK A01 T02090199  RH  094%=      5-min Rain = 0
KOD1 250953Z 12007KT 21/20 A2991 RMK A01 T02090199  RH  094%=      5-min Rain = 0
KOD1 250954Z 12007KT 21/20 A2991 RMK A01 T02090199  RH  094%=      5-min Rain = 0
KOD1 250955Z 12007KT 21/20 A2991 RMK A01 T02100200  RH  094%=      5-min Rain = 0
KOD1 250956Z 12007KT 21/20 A2991 RMK A01 T02100200  RH  094%=      5-min Rain = 0
KOD1 250957Z 12007KT 21/20 A2991 RMK A01 T02100200  RH  094%=      5-min Rain = 0
KOD1 250958Z 11006KT 21/20 A2991 RMK A01 T02100201  RH  094%=      5-min Rain = 0
KOD1 250959Z 12007KT 21/20 A2991 RMK A01 T02110201  RH  094%=      5-min Rain = 0
KOD1 251000Z 12006KT 21/20 A2991 RMK A01 T02110201  RH  094%=      5-min Rain = 0
KOD1 251001Z 12006KT 21/20 A2991 RMK A01 T02110201  RH  094%=      5-min Rain = 0
KOD1 251002Z 12006KT 21/20 A2991 RMK A01 T02110201  RH  094%=      5-min Rain = 0
KOD1 251003Z 12006KT 21/20 A2991 RMK A01 T02110201  RH  094%=      5-min Rain = 0
KOD1 251004Z 12006KT 21/20 A2991 RMK A01 T02110201  RH  094%=      5-min Rain = 0
KOD1 251005Z 13006KT 21/20 A2991 RMK A01 T02110202  RH  095%=      5-min Rain = 0
KOD1 251006Z 13006KT 21/20 A2991 RMK A01 T02110202  RH  095%=      5-min Rain = 0
KOD1 251007Z 13005KT 21/20 A2991 RMK A01 T02110202  RH  095%=      5-min Rain = 0
KOD1 251008Z 12005KT 21/20 A2991 RMK A01 T02110202  RH  095%=      5-min Rain = 0
KOD1 251009Z 12005KT 21/20 A2991 RMK A01 T02110202  RH  095%=      5-min Rain = 0
KOD1 251010Z 12005KT 21/20 A2991 RMK A01 T02100201  RH  095%=      5-min Rain = 0
KOD1 251011Z 12006KT 21/20 A2991 RMK A01 T02090200  RH  095%=      5-min Rain = 0
KOD1 251012Z 12006KT 21/20 A2991 RMK A01 T02090201  RH  095%=      5-min Rain = 0
KOD1 251013Z 11006KT 21/20 A2991 RMK A01 T02090200  RH  095%=      5-min Rain = 0
KOD1 251014Z 12006KT 21/20 A2991 RMK A01 T02090200  RH  095%=      5-min Rain = 0
KOD1 251015Z 12006KT 21/20 A2991 RMK A01 T02090201  RH  095%=      5-min Rain = 0
KOD1 251016Z 12006KT 21/20 A2991 RMK A01 T02090201  RH  095%=      5-min Rain = 0
KOD1 251017Z 12007KT 21/20 A2991 RMK A01 T02080200  RH  095%=      5-min Rain = 0
KOD1 251018Z 12007KT 21/20 A2991 RMK A01 T02080200  RH  095%=      5-min Rain = 0
KOD1 251019Z 11007KT 21/20 A2991 RMK A01 T02080201  RH  095%=      5-min Rain = 0
KOD1 251020Z 11007KT 21/20 A2991 RMK A01 T02080201  RH  096%=      5-min Rain = 0
KOD1 251021Z 11007KT 21/20 A2991 RMK A01 T02080201  RH  096%=      5-min Rain = 0
KOD1 251022Z 11006KT 21/20 A2991 RMK A01 T02080201  RH  096%=      5-min Rain = 0
KOD1 251023Z 11006KT 21/20 A2991 RMK A01 T02080201  RH  096%=      5-min Rain = 0
KOD1 251024Z 11005KT 21/20 A2991 RMK A01 T02080202  RH  096%=      5-min Rain = 0
KOD1 251025Z 11005KT 21/20 A2991 RMK A01 T02080201  RH  096%=      5-min Rain = 0
KOD1 251026Z 11005KT 21/20 A2991 RMK A01 T02080202  RH  096%=      5-min Rain = 0
KOD1 251027Z 11006KT 21/20 A2991 RMK A01 T02080202  RH  096%=      5-min Rain = 0
KOD1 251028Z 11005KT 21/20 A2991 RMK A01 T02080202  RH  096%=      5-min Rain = 0
KOD1 251029Z 11005KT 21/20 A2991 RMK A01 T02080202  RH  096%=      5-min Rain = 0
KOD1 251030Z 11005KT 21/20 A2991 RMK A01 T02080202  RH  096%=      5-min Rain = 0
KOD1 251031Z 10005KT 21/20 A2992 RMK A01 T02080202  RH  096%=      5-min Rain = 0
KOD1 251032Z 11005KT 21/20 A2992 RMK A01 T02080202  RH  096%=      5-min Rain = 0
KOD1 251033Z 11004KT 21/20 A2992 RMK A01 T02090203  RH  096%=      5-min Rain = 0
KOD1 251034Z 11005KT 21/20 A2992 RMK A01 T02080202  RH  096%=      5-min Rain = 0
KOD1 251035Z 11005KT 21/20 A2992 RMK A01 T02080202  RH  096%=      5-min Rain = 0
KOD1 251036Z 11005KT 21/20 A2992 RMK A01 T02080202  RH  096%=      5-min Rain = 0
KOD1 251037Z 11005KT 21/20 A2992 RMK A01 T02080202  RH  096%=      5-min Rain = 0
KOD1 251038Z 11005KT 21/20 A2992 RMK A01 T02080202  RH  096%=      5-min Rain = 0
KOD1 251039Z 11005KT 21/20 A2992 RMK A01 T02070202  RH  096%=      5-min Rain = 0
KOD1 251040Z 11005KT 21/20 A2992 RMK A01 T02070202  RH  097%=      5-min Rain = 0
KOD1 251041Z 11005KT 21/20 A2992 RMK A01 T02070202  RH  097%=      5-min Rain = 0
KOD1 251042Z 11005KT 21/20 A2992 RMK A01 T02080202  RH  097%=      5-min Rain = 0
KOD1 251043Z 11005KT 21/20 A2992 RMK A01 T02080203  RH  097%=      5-min Rain = 0
KOD1 251044Z 12006KT 21/20 A2992 RMK A01 T02070202  RH  097%=      5-min Rain = 0
KOD1 251045Z 12005KT 21/20 A2992 RMK A01 T02070202  RH  097%=      5-min Rain = 0
KOD1 251046Z 12005KT 21/20 A2992 RMK A01 T02070202  RH  097%=      5-min Rain = 0
KOD1 251047Z 11005KT 21/20 A2992 RMK A01 T02070201  RH  097%=      5-min Rain = 0
KOD1 251048Z 12005KT 21/20 A2992 RMK A01 T02070201  RH  097%=      5-min Rain = 0
KOD1 251049Z 12005KT 21/20 A2992 RMK A01 T02070202  RH  097%=      5-min Rain = 0
KOD1 251050Z 11005KT 21/20 A2992 RMK A01 T02070202  RH  097%=      5-min Rain = 0
KOD1 251051Z 12005KT 21/20 A2992 RMK A01 T02080203  RH  097%=      5-min Rain = 0
KOD1 251052Z 12005KT 21/20 A2993 RMK A01 T02080203  RH  097%=      5-min Rain = 0
KOD1 251053Z 12005KT 21/20 A2993 RMK A01 T02080202  RH  097%=      5-min Rain = 0
KOD1 251054Z 12005KT 21/20 A2993 RMK A01 T02070202  RH  097%=      5-min Rain = 0
KOD1 251055Z 12005KT 21/20 A2993 RMK A01 T02070202  RH  097%=      5-min Rain = 0
KOD1 251056Z 12005KT 21/20 A2993 RMK A01 T02070202  RH  097%=      5-min Rain = 0
KOD1 251057Z 12005KT 21/20 A2993 RMK A01 T02070202  RH  097%=      5-min Rain = 0
KOD1 251058Z 12005KT 21/20 A2993 RMK A01 T02070202  RH  097%=      5-min Rain = 0
KOD1 251059Z 12006KT 21/20 A2993 RMK A01 T02070203  RH  097%=      5-min Rain = 0
KOD1 251100Z 12005KT 21/20 A2993 RMK A01 T02080204  RH  097%=      5-min Rain = 0
KOD1 251101Z 12005KT 21/20 A2993 RMK A01 T02090204  RH  097%=      5-min Rain = 0
KOD1 251102Z 12006KT 21/21 A2993 RMK A01 T02090205  RH  097%=      5-min Rain = 0
KOD1 251103Z 13006KT 21/21 A2993 RMK A01 T02090205  RH  097%=      5-min Rain = 0
KOD1 251104Z 12006KT 21/21 A2993 RMK A01 T02090205  RH  097%=      5-min Rain = 0
KOD1 251105Z 12006KT 21/21 A2993 RMK A01 T02090205  RH  097%=      5-min Rain = 0
KOD1 251106Z 13006KT 21/21 A2993 RMK A01 T02090205  RH  097%=      5-min Rain = 0
KOD1 251107Z 12005KT 21/21 A2993 RMK A01 T02090205  RH  097%=      5-min Rain = 0
KOD1 251108Z 12006KT 21/21 A2993 RMK A01 T02090205  RH  097%=      5-min Rain = 0
KOD1 251109Z 12005KT 21/21 A2993 RMK A01 T02090205  RH  097%=      5-min Rain = 0
KOD1 251110Z 13005KT 21/21 A2993 RMK A01 T02090205  RH  097%=      5-min Rain = 0
KOD1 251111Z 13006KT 21/21 A2993 RMK A01 T02090205  RH  098%=      5-min Rain = 0
KOD1 251112Z 13005KT 21/21 A2993 RMK A01 T02090205  RH  098%=      5-min Rain = 0
KOD1 251113Z 13005KT 21/21 A2993 RMK A01 T02090205  RH  098%=      5-min Rain = 0
KOD1 251114Z 13005KT 21/21 A2993 RMK A01 T02090205  RH  098%=      5-min Rain = 0
KOD1 251115Z 14004KT 21/21 A2993 RMK A01 T02090205  RH  098%=      5-min Rain = 0
KOD1 251116Z 14004KT 21/21 A2993 RMK A01 T02090205  RH  098%=      5-min Rain = 0
KOD1 251117Z 14004KT 21/21 A2993 RMK A01 T02090205  RH  098%=      5-min Rain = 0
KOD1 251118Z 14005KT 21/20 A2993 RMK A01 T02080204  RH  098%=      5-min Rain = 0
KOD1 251119Z 15004KT 21/20 A2993 RMK A01 T02080204  RH  098%=      5-min Rain = 0
KOD1 251120Z 15005KT 21/21 A2993 RMK A01 T02080205  RH  098%=      5-min Rain = 0
KOD1 251121Z 14004KT 21/20 A2993 RMK A01 T02080204  RH  098%=      5-min Rain = 0
KOD1 251122Z 14004KT 21/20 A2993 RMK A01 T02070204  RH  098%=      5-min Rain = 0
KOD1 251123Z 14005KT 21/20 A2993 RMK A01 T02070204  RH  098%=      5-min Rain = 0
KOD1 251124Z 13005KT 21/20 A2993 RMK A01 T02070204  RH  098%=      5-min Rain = 0
KOD1 251125Z 13005KT 21/20 A2993 RMK A01 T02070204  RH  098%=      5-min Rain = 0
KOD1 251126Z 13004KT 21/20 A2993 RMK A01 T02070204  RH  098%=      5-min Rain = 0
KOD1 251127Z 14004KT 21/20 A2993 RMK A01 T02070204  RH  098%=      5-min Rain = 0
KOD1 251128Z 13004KT 21/20 A2994 RMK A01 T02070204  RH  098%=      5-min Rain = 0
KOD1 251129Z 13004KT 21/20 A2994 RMK A01 T02070204  RH  098%=      5-min Rain = 0
KOD1 251130Z 14004KT 21/20 A2994 RMK A01 T02070204  RH  098%=      5-min Rain = 0
KOD1 251131Z 14004KT 21/20 A2994 RMK A01 T02070204  RH  098%=      5-min Rain = 0
KOD1 251132Z 14004KT 21/20 A2994 RMK A01 T02070204  RH  098%=      5-min Rain = 0
KOD1 251133Z 14004KT 21/20 A2994 RMK A01 T02080204  RH  098%=      5-min Rain = 0
KOD1 251134Z 14005KT 21/20 A2994 RMK A01 T02070204  RH  098%=      5-min Rain = 0
KOD1 251135Z 14005KT 21/20 A2994 RMK A01 T02080204  RH  098%=      5-min Rain = 0
KOD1 251136Z 14005KT 21/20 A2994 RMK A01 T02070204  RH  098%=      5-min Rain = 0
KOD1 251137Z 15005KT 21/20 A2994 RMK A01 T02070204  RH  098%=      5-min Rain = 0
KOD1 251138Z 15004KT 21/20 A2994 RMK A01 T02070204  RH  098%=      5-min Rain = 0
KOD1 251139Z 16004KT 21/20 A2994 RMK A01 T02070204  RH  098%=      5-min Rain = 0
KOD1 251140Z 15004KT 21/20 A2994 RMK A01 T02070204  RH  098%=      5-min Rain = 0
KOD1 251141Z 15004KT 21/20 A2994 RMK A01 T02070204  RH  098%=      5-min Rain = 0
KOD1 251142Z 14004KT 21/21 A2995 RMK A01 T02080205  RH  098%=      5-min Rain = 0
KOD1 251143Z 15004KT 21/21 A2995 RMK A01 T02080205  RH  098%=      5-min Rain = 0
KOD1 251144Z 14004KT 21/21 A2995 RMK A01 T02080205  RH  098%=      5-min Rain = 0
KOD1 251145Z 15004KT 21/21 A2995 RMK A01 T02080206  RH  098%=      5-min Rain = 0
KOD1 251146Z 15005KT 21/21 A2995 RMK A01 T02090206  RH  098%=      5-min Rain = 0
KOD1 251147Z 15005KT 21/21 A2995 RMK A01 T02080206  RH  098%=      5-min Rain = 0
KOD1 251148Z 16005KT 21/21 A2995 RMK A01 T02080205  RH  098%=      5-min Rain = 0
KOD1 251149Z 16005KT 21/21 A2995 RMK A01 T02080205  RH  098%=      5-min Rain = 0
KOD1 251150Z 15005KT 21/21 A2995 RMK A01 T02080205  RH  098%=      5-min Rain = 0
KOD1 251151Z 16005KT 21/21 A2995 RMK A01 T02080205  RH  098%=      5-min Rain = 0
KOD1 251152Z 16005KT 21/21 A2995 RMK A01 T02080205  RH  098%=      5-min Rain = 0
KOD1 251153Z 16005KT 21/21 A2995 RMK A01 T02080205  RH  098%=      5-min Rain = 0
KOD1 251154Z 15006KT 21/21 A2995 RMK A01 T02080205  RH  098%=      5-min Rain = 0
KOD1 251155Z 15006KT 21/21 A2995 RMK A01 T02080205  RH  098%=      5-min Rain = 0
KOD1 251156Z 15006KT 21/21 A2995 RMK A01 T02080206  RH  098%=      5-min Rain = 0
KOD1 251157Z 15005KT 21/21 A2995 RMK A01 T02080205  RH  098%=      5-min Rain = 0
KOD1 251158Z 15004KT 21/21 A2995 RMK A01 T02080206  RH  098%=      5-min Rain = 0
KOD1 251159Z 15005KT 21/21 A2995 RMK A01 T02080206  RH  098%=      5-min Rain = 0
KOD1 251200Z 14005KT 21/21 A2995 RMK A01 T02080206  RH  098%=      5-min Rain = 0
KOD1 251201Z 16006KT 21/21 A2995 RMK A01 T02080205  RH  098%=      5-min Rain = 0
KOD1 251202Z 14005KT 21/21 A2995 RMK A01 T02080206  RH  098%=      5-min Rain = 0
KOD1 251203Z 14006KT 21/21 A2995 RMK A01 T02090206  RH  098%=      5-min Rain = 0
KOD1 251204Z 14006KT 21/21 A2995 RMK A01 T02080205  RH  098%=      5-min Rain = 0
KOD1 251205Z 14006KT 21/21 A2995 RMK A01 T02080206  RH  098%=      5-min Rain = 0
KOD1 251206Z 14006KT 21/21 A2995 RMK A01 T02070205  RH  098%=      5-min Rain = 0
KOD1 251207Z 14005KT 21/21 A2996 RMK A01 T02070205  RH  098%=      5-min Rain = 0
KOD1 251208Z 15006KT 21/21 A2996 RMK A01 T02070205  RH  098%=      5-min Rain = 0
KOD1 251209Z 15007KT 21/21 A2996 RMK A01 T02070205  RH  098%=      5-min Rain = 0
KOD1 251210Z 14007KT 21/20 A2996 RMK A01 T02070204  RH  098%=      5-min Rain = 0
KOD1 251211Z 15007KT 21/20 A2996 RMK A01 T02070204  RH  098%=      5-min Rain = 0
KOD1 251212Z 15007KT 21/20 A2996 RMK A01 T02070204  RH  098%=      5-min Rain = 0
KOD1 251213Z 15007KT 21/21 A2996 RMK A01 T02070205  RH  098%=      5-min Rain = 0
KOD1 251214Z 15006KT 21/21 A2996 RMK A01 T02070205  RH  098%=      5-min Rain = 0
KOD1 251215Z 14007KT 21/21 A2996 RMK A01 T02080205  RH  098%=      5-min Rain = 0
KOD1 251216Z 14009KT 21/21 A2996 RMK A01 T02070205  RH  098%=      5-min Rain = 0
KOD1 251217Z 15008KT 21/20 A2996 RMK A01 T02070204  RH  098%=      5-min Rain = 0
KOD1 251218Z 15008KT 21/20 A2996 RMK A01 T02070204  RH  098%=      5-min Rain = 0
KOD1 251219Z 15008KT 21/20 A2996 RMK A01 T02070204  RH  098%=      5-min Rain = 0
KOD1 251220Z 14008KT 21/21 A2996 RMK A01 T02070205  RH  098%=      5-min Rain = 0
KOD1 251221Z 15009KT 21/20 A2996 RMK A01 T02070204  RH  098%=      5-min Rain = 0
KOD1 251222Z 15007KT 21/20 A2996 RMK A01 T02070204  RH  098%=      5-min Rain = 0
KOD1 251223Z 15008KT 21/21 A2996 RMK A01 T02070205  RH  098%=      5-min Rain = 0
KOD1 251224Z 15009KT 21/21 A2996 RMK A01 T02070205  RH  098%=      5-min Rain = 0
KOD1 251225Z 15007KT 21/21 A2996 RMK A01 T02070205  RH  098%=      5-min Rain = 0
KOD1 251226Z 16006KT 21/21 A2996 RMK A01 T02080205  RH  098%=      5-min Rain = 0
KOD1 251227Z 16007KT 21/21 A2996 RMK A01 T02090206  RH  098%=      5-min Rain = 0
KOD1 251228Z 16006KT 21/21 A2996 RMK A01 T02080206  RH  098%=      5-min Rain = 0
KOD1 251229Z 16008KT 21/21 A2996 RMK A01 T02080206  RH  098%=      5-min Rain = 0
KOD1 251230Z 16009KT 21/21 A2996 RMK A01 T02080205  RH  098%=      5-min Rain = 0
KOD1 251231Z 16008KT 21/21 A2996 RMK A01 T02080205  RH  098%=      5-min Rain = 0
KOD1 251232Z 16009KT 21/21 A2996 RMK A01 T02080205  RH  098%=      5-min Rain = 0
KOD1 251233Z 16009KT 21/21 A2996 RMK A01 T02080205  RH  098%=      5-min Rain = 0
KOD1 251234Z 16010KT 21/20 A2996 RMK A01 T02070204  RH  098%=      5-min Rain = 0
KOD1 251235Z 16010KT 21/20 A2996 RMK A01 T02070204  RH  098%=      5-min Rain = 0
KOD1 251236Z 15010KT 21/20 A2996 RMK A01 T02080204  RH  098%=      5-min Rain = 0
KOD1 251237Z 15009KT 21/21 A2996 RMK A01 T02080205  RH  098%=      5-min Rain = 0
KOD1 251238Z 15008KT 21/21 A2996 RMK A01 T02090205  RH  098%=      5-min Rain = 0
KOD1 251239Z 15008KT 21/21 A2997 RMK A01 T02090206  RH  098%=      5-min Rain = 0
KOD1 251240Z 16007KT 21/21 A2997 RMK A01 T02100207  RH  098%=      5-min Rain = 0
KOD1 251241Z 15007KT 21/21 A2997 RMK A01 T02110207  RH  098%=      5-min Rain = 0
KOD1 251242Z 14008KT 21/21 A2996 RMK A01 T02110207  RH  097%=      5-min Rain = 0
KOD1 251243Z 14009KT 21/21 A2996 RMK A01 T02110206  RH  097%=      5-min Rain = 0
KOD1 251244Z 15009KT 21/21 A2997 RMK A01 T02120207  RH  097%=      5-min Rain = 0
KOD1 251245Z 15010KT 21/21 A2997 RMK A01 T02130207  RH  096%=      5-min Rain = 0
KOD1 251246Z 15008KT 21/21 A2997 RMK A01 T02130206  RH  096%=      5-min Rain = 0
KOD1 251247Z 14009KT 21/21 A2997 RMK A01 T02130206  RH  096%=      5-min Rain = 0
KOD1 251248Z 14009KT 21/21 A2997 RMK A01 T02140206  RH  095%=      5-min Rain = 0
KOD1 251249Z 15007KT 22/21 A2997 RMK A01 T02150207  RH  095%=      5-min Rain = 0
KOD1 251250Z 15010KT 22/21 A2997 RMK A01 T02160207  RH  095%=      5-min Rain = 0
KOD1 251251Z 16010KT 22/21 A2997 RMK A01 T02150205  RH  094%=      5-min Rain = 0
KOD1 251252Z 15010KT 22/21 A2997 RMK A01 T02160205  RH  093%=      5-min Rain = 0
KOD1 251253Z 16010KT 22/20 A2997 RMK A01 T02150203  RH  093%=      5-min Rain = 0
KOD1 251254Z 15010KT 22/20 A2997 RMK A01 T02150203  RH  093%=      5-min Rain = 0
KOD1 251255Z 15010KT 22/20 A2997 RMK A01 T02160203  RH  093%=      5-min Rain = 0
KOD1 251256Z 15011KT 22/20 A2997 RMK A01 T02160202  RH  092%=      5-min Rain = 0
KOD1 251257Z 15009KT 22/20 A2997 RMK A01 T02160202  RH  092%=      5-min Rain = 0
KOD1 251258Z 15010KT 22/20 A2997 RMK A01 T02170203  RH  092%=      5-min Rain = 0
KOD1 251259Z 15010KT 22/20 A2997 RMK A01 T02180203  RH  091%=      5-min Rain = 0
KOD1 251300Z 15010KT 22/20 A2997 RMK A01 T02190203  RH  091%=      5-min Rain = 0
KOD1 251301Z 15010KT 22/20 A2997 RMK A01 T02190202  RH  090%=      5-min Rain = 0
KOD1 251302Z 15010KT 22/20 A2997 RMK A01 T02190202  RH  090%=      5-min Rain = 0
KOD1 251303Z 15008KT 22/20 A2997 RMK A01 T02190203  RH  090%=      5-min Rain = 0
KOD1 251304Z 16011KT 22/20 A2997 RMK A01 T02200203  RH  090%=      5-min Rain = 0
KOD1 251305Z 16011KT 22/20 A2997 RMK A01 T02190202  RH  090%=      5-min Rain = 0
KOD1 251306Z 15009KT 22/20 A2997 RMK A01 T02200203  RH  090%=      5-min Rain = 0
KOD1 251307Z 16010KT 22/20 A2997 RMK A01 T02200203  RH  090%=      5-min Rain = 0
KOD1 251308Z 15007KT 22/20 A2997 RMK A01 T02210203  RH  090%=      5-min Rain = 0
KOD1 251309Z 15009KT 22/20 A2997 RMK A01 T02220204  RH  089%=      5-min Rain = 0
KOD1 251310Z 15009KT 22/20 A2997 RMK A01 T02230204  RH  089%=      5-min Rain = 0
KOD1 251311Z 15010KT 22/20 A2997 RMK A01 T02240202  RH  088%=      5-min Rain = 0
KOD1 251312Z 14012KT 22/20 A2997 RMK A01 T02240201  RH  087%=      5-min Rain = 0
KOD1 251313Z 15012KT 22/20 A2998 RMK A01 T02230200  RH  087%=      5-min Rain = 0
KOD1 251314Z 15011KT 22/20 A2998 RMK A01 T02230201  RH  087%=      5-min Rain = 0
KOD1 251315Z 15009KT 22/20 A2998 RMK A01 T02230201  RH  087%=      5-min Rain = 0
KOD1 251316Z 15008KT 22/20 A2998 RMK A01 T02240202  RH  087%=      5-min Rain = 0
KOD1 251317Z 16009KT 23/20 A2998 RMK A01 T02250202  RH  087%=      5-min Rain = 0
KOD1 251318Z 15008KT 23/20 A2998 RMK A01 T02260204  RH  088%=      5-min Rain = 0
KOD1 251319Z 16009KT 23/20 A2998 RMK A01 T02270204  RH  087%=      5-min Rain = 0
KOD1 251320Z 16010KT 23/20 A2998 RMK A01 T02270203  RH  086%=      5-min Rain = 0
KOD1 251321Z 15010KT 23/20 A2998 RMK A01 T02280203  RH  086%=      5-min Rain = 0
KOD1 251322Z 15010KT 23/20 A2998 RMK A01 T02270201  RH  085%=      5-min Rain = 0
KOD1 251323Z 16007KT 23/20 A2998 RMK A01 T02280203  RH  086%=      5-min Rain = 0
KOD1 251324Z 16007KT 23/20 A2998 RMK A01 T02290204  RH  086%=      5-min Rain = 0
KOD1 251325Z 16007KT 23/20 A2998 RMK A01 T02300204  RH  085%=      5-min Rain = 0
KOD1 251326Z 17008KT 23/20 A2998 RMK A01 T02300203  RH  084%=      5-min Rain = 0
KOD1 251327Z 16008KT 23/20 A2998 RMK A01 T02300204  RH  085%=      5-min Rain = 0
KOD1 251328Z 15008KT 23/20 A2998 RMK A01 T02300204  RH  085%=      5-min Rain = 0
KOD1 251329Z 16008KT 23/20 A2998 RMK A01 T02320204  RH  085%=      5-min Rain = 0
KOD1 251330Z 17008KT 23/20 A2998 RMK A01 T02320203  RH  084%=      5-min Rain = 0
KOD1 251331Z 15007KT 23/20 A2998 RMK A01 T02320203  RH  084%=      5-min Rain = 0
KOD1 251332Z 16008KT 23/20 A2998 RMK A01 T02330203  RH  083%=      5-min Rain = 0
KOD1 251333Z 16009KT 23/20 A2998 RMK A01 T02330202  RH  082%=      5-min Rain = 0
KOD1 251334Z 16008KT 23/20 A2998 RMK A01 T02320202  RH  083%=      5-min Rain = 0
KOD1 251335Z 17009KT 23/20 A2998 RMK A01 T02320201  RH  083%=      5-min Rain = 0
KOD1 251336Z 16009KT 23/20 A2998 RMK A01 T02320202  RH  083%=      5-min Rain = 0
KOD1 251337Z 17008KT 23/20 A2998 RMK A01 T02320202  RH  083%=      5-min Rain = 0
KOD1 251338Z 17007KT 23/20 A2998 RMK A01 T02330203  RH  084%=      5-min Rain = 0
KOD1 251339Z 17008KT 23/20 A2998 RMK A01 T02330202  RH  083%=      5-min Rain = 0
KOD1 251340Z 16007KT 23/20 A2998 RMK A01 T02340204  RH  083%=      5-min Rain = 0
KOD1 251341Z 17007KT 24/20 A2998 RMK A01 T02360204  RH  083%=      5-min Rain = 0
KOD1 251342Z 17009KT 24/20 A2998 RMK A01 T02360203  RH  081%=      5-min Rain = 0
KOD1 251343Z 16009KT 24/20 A2998 RMK A01 T02360200  RH  080%=      5-min Rain = 0
KOD1 251344Z 16008KT 24/20 A2998 RMK A01 T02360200  RH  080%=      5-min Rain = 0
KOD1 251345Z 17007KT 24/20 A2998 RMK A01 T02370201  RH  081%=      5-min Rain = 0
KOD1 251346Z 16010KT 24/20 A2998 RMK A01 T02370202  RH  080%=      5-min Rain = 0
KOD1 251347Z 16010KT 24/20 A2998 RMK A01 T02370199  RH  079%=      5-min Rain = 0
KOD1 251348Z 17009KT 24/20 A2998 RMK A01 T02360200  RH  080%=      5-min Rain = 0
KOD1 251349Z 18009KT 24/20 A2998 RMK A01 T02370199  RH  079%=      5-min Rain = 0
KOD1 251350Z 17010KT 24/20 A2998 RMK A01 T02380200  RH  079%=      5-min Rain = 0
KOD1 251351Z 17012KT 24/20 A2998 RMK A01 T02370198  RH  079%=      5-min Rain = 0
KOD1 251352Z 17011KT 24/20 A2999 RMK A01 T02370198  RH  079%=      5-min Rain = 0
KOD1 251353Z 17010KT 24/20 A2999 RMK A01 T02360198  RH  079%=      5-min Rain = 0
KOD1 251354Z 16011KT 24/20 A2999 RMK A01 T02370198  RH  079%=      5-min Rain = 0
KOD1 251355Z 17009KT 24/20 A2999 RMK A01 T02380199  RH  079%=      5-min Rain = 0
KOD1 251356Z 17008KT 24/20 A2999 RMK A01 T02390200  RH  079%=      5-min Rain = 0
KOD1 251357Z 17010KT 24/20 A2999 RMK A01 T02400201  RH  078%=      5-min Rain = 0
KOD1 251358Z 17010KT 24/20 A2999 RMK A01 T02410199  RH  077%=      5-min Rain = 0
KOD1 251359Z 16011KT 24/20 A2999 RMK A01 T02420199  RH  077%=      5-min Rain = 0
KOD1 251400Z 17010KT 24/20 A2999 RMK A01 T02410198  RH  077%=      5-min Rain = 0
KOD1 251401Z 16009KT 24/20 A2999 RMK A01 T02400199  RH  078%=      5-min Rain = 0
KOD1 251402Z 18009KT 24/20 A2999 RMK A01 T02420200  RH  078%=      5-min Rain = 0
KOD1 251403Z 16008KT 24/20 A2999 RMK A01 T02430201  RH  078%=      5-min Rain = 0
KOD1 251404Z 15009KT 24/20 A2999 RMK A01 T02430199  RH  076%=      5-min Rain = 0
KOD1 251405Z 17009KT 25/20 A2999 RMK A01 T02450200  RH  076%=      5-min Rain = 0
KOD1 251406Z 16010KT 24/20 A2999 RMK A01 T02440198  RH  075%=      5-min Rain = 0
KOD1 251407Z 16009KT 24/20 A2999 RMK A01 T02440200  RH  076%=      5-min Rain = 0
KOD1 251408Z 17010KT 25/20 A2999 RMK A01 T02450200  RH  076%=      5-min Rain = 0
KOD1 251409Z 17009KT 25/20 A2999 RMK A01 T02450199  RH  076%=      5-min Rain = 0
KOD1 251410Z 16009KT 24/20 A2999 RMK A01 T02440200  RH  076%=      5-min Rain = 0
KOD1 251411Z 16011KT 25/20 A2999 RMK A01 T02460199  RH  075%=      5-min Rain = 0
KOD1 251412Z 16011KT 25/20 A2999 RMK A01 T02470198  RH  074%=      5-min Rain = 0
KOD1 251413Z 17009KT 25/20 A2999 RMK A01 T02470198  RH  074%=      5-min Rain = 0
KOD1 251414Z 16008KT 25/20 A2999 RMK A01 T02480200  RH  075%=      5-min Rain = 0
KOD1 251415Z 16010KT 25/20 A2999 RMK A01 T02490197  RH  073%=      5-min Rain = 0
KOD1 251416Z 16010KT 25/20 A2999 RMK A01 T02490195  RH  072%=      5-min Rain = 0
KOD1 251417Z 15009KT 25/20 A2999 RMK A01 T02500198  RH  073%=      5-min Rain = 0
KOD1 251418Z 17010KT 25/20 A2999 RMK A01 T02520199  RH  072%=      5-min Rain = 0
KOD1 251419Z 17010KT 25/20 A2999 RMK A01 T02510196  RH  071%=      5-min Rain = 0
KOD1 251420Z 17011KT 25/20 A2999 RMK A01 T02500195  RH  071%=      5-min Rain = 0
KOD1 251421Z 16011KT 25/19 A2999 RMK A01 T02500194  RH  071%=      5-min Rain = 0
KOD1 251422Z 17010KT 25/20 A2999 RMK A01 T02500195  RH  071%=      5-min Rain = 0
KOD1 251423Z 17009KT 25/20 A2999 RMK A01 T02500195  RH  072%=      5-min Rain = 0
KOD1 251424Z 16011KT 25/20 A2999 RMK A01 T02520198  RH  072%=      5-min Rain = 0
KOD1 251425Z 16010KT 25/20 A2999 RMK A01 T02530197  RH  071%=      5-min Rain = 0
KOD1 251426Z 16010KT 25/20 A2999 RMK A01 T02530197  RH  071%=      5-min Rain = 0
KOD1 251427Z 17010KT 25/20 A2999 RMK A01 T02530197  RH  071%=      5-min Rain = 0
KOD1 251428Z 16011KT 25/20 A2999 RMK A01 T02540195  RH  070%=      5-min Rain = 0
KOD1 251429Z 16010KT 25/19 A2999 RMK A01 T02540192  RH  068%=      5-min Rain = 0
KOD1 251430Z 16009KT 26/20 A2999 RMK A01 T02560196  RH  069%=      5-min Rain = 0
KOD1 251431Z 17009KT 26/20 A2999 RMK A01 T02570196  RH  069%=      5-min Rain = 0
KOD1 251432Z 16010KT 26/20 A2999 RMK A01 T02570197  RH  069%=      5-min Rain = 0
KOD1 251433Z 15010KT 26/19 A2999 RMK A01 T02570193  RH  068%=      5-min Rain = 0
KOD1 251434Z 16010KT 26/19 A2999 RMK A01 T02570192  RH  067%=      5-min Rain = 0
KOD1 251435Z 16010KT 26/19 A2999 RMK A01 T02580193  RH  067%=      5-min Rain = 0
KOD1 251436Z 17008KT 26/20 A2999 RMK A01 T02570195  RH  069%=      5-min Rain = 0
KOD1 251437Z 17010KT 26/20 A2999 RMK A01 T02590195  RH  068%=      5-min Rain = 0
KOD1 251438Z 18011KT 26/19 A2999 RMK A01 T02590189  RH  065%=      5-min Rain = 0
KOD1 251439Z 18009KT 26/19 A2999 RMK A01 T02580191  RH  067%=      5-min Rain = 0
KOD1 251440Z 18009KT 26/19 A2999 RMK A01 T02590192  RH  066%=      5-min Rain = 0
KOD1 251441Z 18010KT 26/19 A2999 RMK A01 T02600189  RH  065%=      5-min Rain = 0
KOD1 251442Z 17011KT 26/19 A2999 RMK A01 T02600188  RH  064%=      5-min Rain = 0
KOD1 251443Z 17010KT 26/19 A2999 RMK A01 T02590189  RH  065%=      5-min Rain = 0
KOD1 251444Z 16009KT 26/19 A2999 RMK A01 T02590191  RH  066%=      5-min Rain = 0
KOD1 251445Z 16008KT 26/19 A2999 RMK A01 T02600193  RH  067%=      5-min Rain = 0
KOD1 251446Z 18010KT 26/20 A2999 RMK A01 T02620195  RH  067%=      5-min Rain = 0
KOD1 251447Z 18010KT 26/19 A2999 RMK A01 T02620192  RH  065%=      5-min Rain = 0
KOD1 251448Z 18011KT 26/19 A2999 RMK A01 T02610187  RH  064%=      5-min Rain = 0
KOD1 251449Z 17010KT 26/19 A2999 RMK A01 T02600188  RH  064%=      5-min Rain = 0
KOD1 251450Z 18011KT 26/18 A2999 RMK A01 T02600184  RH  063%=      5-min Rain = 0
KOD1 251451Z 18012KT 26/18 A2999 RMK A01 T02610182  RH  062%=      5-min Rain = 0
KOD1 251452Z 19011KT 26/18 A2999 RMK A01 T02610181  RH  061%=      5-min Rain = 0
KOD1 251453Z 18010KT 26/18 A2999 RMK A01 T02610183  RH  062%=      5-min Rain = 0
KOD1 251454Z 18011KT 26/18 A2999 RMK A01 T02610183  RH  062%=      5-min Rain = 0
KOD1 251455Z 17010KT 26/18 A2999 RMK A01 T02610184  RH  062%=      5-min Rain = 0
KOD1 251456Z 17010KT 26/19 A2999 RMK A01 T02620187  RH  063%=      5-min Rain = 0
KOD1 251457Z 18010KT 26/19 A2999 RMK A01 T02630189  RH  064%=      5-min Rain = 0
KOD1 251458Z 17009KT 26/19 A2999 RMK A01 T02620189  RH  064%=      5-min Rain = 0
KOD1 251459Z 17010KT 26/19 A2999 RMK A01 T02620187  RH  064%=      5-min Rain = 0
KOD1 251500Z 18008KT 26/19 A2999 RMK A01 T02610191  RH  065%=      5-min Rain = 0
KOD1 251501Z 17008KT 26/20 A2999 RMK A01 T02630195  RH  066%=      5-min Rain = 0
KOD1 251502Z 16008KT 27/19 A2999 RMK A01 T02650193  RH  065%=      5-min Rain = 0
KOD1 251503Z 17010KT 27/19 A2999 RMK A01 T02670194  RH  064%=      5-min Rain = 0
KOD1 251504Z 19009KT 27/19 A2999 RMK A01 T02680192  RH  063%=      5-min Rain = 0
KOD1 251505Z 18011KT 27/19 A2999 RMK A01 T02670190  RH  062%=      5-min Rain = 0
KOD1 251506Z 18010KT 27/19 A2999 RMK A01 T02660191  RH  063%=      5-min Rain = 0
KOD1 251507Z 18007KT 27/19 A2999 RMK A01 T02650194  RH  065%=      5-min Rain = 0
KOD1 251508Z 17009KT 27/19 A2999 RMK A01 T02660194  RH  065%=      5-min Rain = 0
KOD1 251509Z 17009KT 27/19 A2998 RMK A01 T02660192  RH  064%=      5-min Rain = 0
KOD1 251510Z 18008KT 27/19 A2998 RMK A01 T02660192  RH  064%=      5-min Rain = 0
KOD1 251511Z 18008KT 27/19 A2998 RMK A01 T02680194  RH  064%=      5-min Rain = 0
KOD1 251512Z 18011KT 27/19 A2998 RMK A01 T02680186  RH  061%=      5-min Rain = 0
KOD1 251513Z 18010KT 27/18 A2998 RMK A01 T02670184  RH  061%=      5-min Rain = 0
KOD1 251514Z 18009KT 27/19 A2998 RMK A01 T02660185  RH  061%=      5-min Rain = 0
KOD1 251515Z 18009KT 27/18 A2998 RMK A01 T02660183  RH  060%=      5-min Rain = 0
KOD1 251516Z 18008KT 27/18 A2998 RMK A01 T02670182  RH  060%=      5-min Rain = 0
KOD1 251517Z 18008KT 27/19 A2998 RMK A01 T02680185  RH  060%=      5-min Rain = 0
KOD1 251518Z 18008KT 27/19 A2998 RMK A01 T02700191  RH  062%=      5-min Rain = 0
KOD1 251519Z 18009KT 27/19 A2998 RMK A01 T02710189  RH  061%=      5-min Rain = 0
KOD1 251520Z 18008KT 27/19 A2998 RMK A01 T02720190  RH  061%=      5-min Rain = 0
KOD1 251521Z 19010KT 27/19 A2998 RMK A01 T02730190  RH  060%=      5-min Rain = 0
KOD1 251522Z 19009KT 27/19 A2998 RMK A01 T02710185  RH  059%=      5-min Rain = 0
KOD1 251523Z 19008KT 27/19 A2998 RMK A01 T02690186  RH  060%=      5-min Rain = 0
KOD1 251524Z 18008KT 27/19 A2998 RMK A01 T02700187  RH  061%=      5-min Rain = 0
KOD1 251525Z 19006KT 27/19 A2998 RMK A01 T02710188  RH  061%=      5-min Rain = 0
KOD1 251526Z 17007KT 27/19 A2998 RMK A01 T02720189  RH  060%=      5-min Rain = 0
KOD1 251527Z 17010KT 27/19 A2998 RMK A01 T02720190  RH  061%=      5-min Rain = 0
KOD1 251528Z 17009KT 27/19 A2998 RMK A01 T02720188  RH  060%=      5-min Rain = 0
KOD1 251529Z 18010KT 27/19 A2998 RMK A01 T02720189  RH  060%=      5-min Rain = 0
KOD1 251530Z 18008KT 27/19 A2998 RMK A01 T02720190  RH  061%=      5-min Rain = 0
KOD1 251531Z 17008KT 27/19 A2998 RMK A01 T02740192  RH  061%=      5-min Rain = 0
KOD1 251532Z 17009KT 27/19 A2998 RMK A01 T02740192  RH  061%=      5-min Rain = 0
KOD1 251533Z 16009KT 28/19 A2998 RMK A01 T02750190  RH  060%=      5-min Rain = 0
KOD1 251534Z 17008KT 28/19 A2998 RMK A01 T02760194  RH  061%=      5-min Rain = 0
KOD1 251535Z 16008KT 28/19 A2998 RMK A01 T02780192  RH  059%=      5-min Rain = 0
KOD1 251536Z 17009KT 28/19 A2998 RMK A01 T02780191  RH  059%=      5-min Rain = 0
KOD1 251537Z 18009KT 28/19 A2998 RMK A01 T02780191  RH  059%=      5-min Rain = 0
KOD1 251538Z 18009KT 28/19 A2998 RMK A01 T02770189  RH  059%=      5-min Rain = 0
KOD1 251539Z 18008KT 28/19 A2998 RMK A01 T02770186  RH  058%=      5-min Rain = 0
KOD1 251540Z 18008KT 28/18 A2998 RMK A01 T02760184  RH  057%=      5-min Rain = 0
KOD1 251541Z 18006KT 28/19 A2998 RMK A01 T02770188  RH  059%=      5-min Rain = 0
KOD1 251542Z 17005KT 28/19 A2998 RMK A01 T02780189  RH  058%=      5-min Rain = 0
KOD1 251543Z 16007KT 28/19 A2998 RMK A01 T02790187  RH  057%=      5-min Rain = 0
KOD1 251544Z 17006KT 28/19 A2998 RMK A01 T02790188  RH  058%=      5-min Rain = 0
KOD1 251545Z 17007KT 28/19 A2998 RMK A01 T02790190  RH  058%=      5-min Rain = 0
KOD1 251546Z 18008KT 28/19 A2997 RMK A01 T02800192  RH  059%=      5-min Rain = 0
KOD1 251547Z 19008KT 28/19 A2998 RMK A01 T02830191  RH  058%=      5-min Rain = 0
KOD1 251548Z 19007KT 28/19 A2998 RMK A01 T02820189  RH  057%=      5-min Rain = 0
KOD1 251549Z 19005KT 28/19 A2997 RMK A01 T02800188  RH  057%=      5-min Rain = 0
KOD1 251550Z 18005KT 28/19 A2997 RMK A01 T02800187  RH  057%=      5-min Rain = 0
KOD1 251551Z 15007KT 28/19 A2997 RMK A01 T02810190  RH  058%=      5-min Rain = 0
KOD1 251552Z 15009KT 28/19 A2997 RMK A01 T02820190  RH  057%=      5-min Rain = 0
KOD1 251553Z 20008KT 28/19 A2997 RMK A01 T02830189  RH  057%=      5-min Rain = 0
KOD1 251554Z 20007KT 28/18 A2997 RMK A01 T02820182  RH  055%=      5-min Rain = 0
KOD1 251555Z 19008KT 28/19 A2997 RMK A01 T02820188  RH  057%=      5-min Rain = 0
KOD1 251556Z 21007KT 29/18 A2997 RMK A01 T02850184  RH  054%=      5-min Rain = 0
KOD1 251557Z 21006KT 28/18 A2997 RMK A01 T02840182  RH  054%=      5-min Rain = 0
KOD1 251558Z 21003KT 28/18 A2997 RMK A01 T02840181  RH  054%=      5-min Rain = 0
KOD1 251559Z 22003KT 28/18 A2997 RMK A01 T02840183  RH  054%=      5-min Rain = 0
KOD1 251600Z 19007KT 29/19 A2997 RMK A01 T02850185  RH  055%=      5-min Rain = 0
KOD1 251601Z 21007KT 29/18 A2997 RMK A01 T02850184  RH  054%=      5-min Rain = 0
KOD1 251602Z 22007KT 29/18 A2997 RMK A01 T02850182  RH  054%=      5-min Rain = 0
KOD1 251603Z 19007KT 29/19 A2997 RMK A01 T02850185  RH  055%=      5-min Rain = 0
KOD1 251604Z 20006KT 29/18 A2997 RMK A01 T02860184  RH  054%=      5-min Rain = 0
KOD1 251605Z 19007KT 29/18 A2997 RMK A01 T02860180  RH  053%=      5-min Rain = 0
KOD1 251606Z 19006KT 29/18 A2997 RMK A01 T02860179  RH  053%=      5-min Rain = 0
KOD1 251607Z 19006KT 29/18 A2998 RMK A01 T02860179  RH  052%=      5-min Rain = 0
KOD1 251608Z 18007KT 29/19 A2998 RMK A01 T02870186  RH  054%=      5-min Rain = 0
KOD1 251609Z 18005KT 29/18 A2998 RMK A01 T02880180  RH  052%=      5-min Rain = 0
KOD1 251610Z 18005G12KT 29/18 A2998 RMK A01 T02870184  RH  054%=      5-min Rain = 0
KOD1 251611Z 19010KT 29/19 A2997 RMK A01 T02880185  RH  054%=      5-min Rain = 0
KOD1 251612Z 21010KT 29/19 A2997 RMK A01 T02900186  RH  054%=      5-min Rain = 0
KOD1 251613Z 24008KT 29/18 A2998 RMK A01 T02900178  RH  051%=      5-min Rain = 0
KOD1 251614Z 26009KT 29/18 A2998 RMK A01 T02900182  RH  052%=      5-min Rain = 0
KOD1 251615Z 28007KT 29/18 A2998 RMK A01 T02900179  RH  051%=      5-min Rain = 0
KOD1 251616Z 27005KT 29/18 A2998 RMK A01 T02910182  RH  052%=      5-min Rain = 0
KOD1 251617Z 24007KT 29/18 A2998 RMK A01 T02920183  RH  052%=      5-min Rain = 0
KOD1 251618Z 21008KT 29/18 A2998 RMK A01 T02930183  RH  051%=      5-min Rain = 0
KOD1 251619Z 22009KT 29/18 A2998 RMK A01 T02930184  RH  052%=      5-min Rain = 0
KOD1 251620Z 22008KT 29/18 A2998 RMK A01 T02930183  RH  052%=      5-min Rain = 0
KOD1 251621Z 22007KT 29/18 A2998 RMK A01 T02920183  RH  052%=      5-min Rain = 0
KOD1 251622Z 22005KT 29/18 A2998 RMK A01 T02920183  RH  052%=      5-min Rain = 0
KOD1 251623Z 20004KT 29/18 A2998 RMK A01 T02920183  RH  052%=      5-min Rain = 0
KOD1 251624Z 17004KT 29/18 A2998 RMK A01 T02930183  RH  051%=      5-min Rain = 0
KOD1 251625Z 20006KT 29/19 A2998 RMK A01 T02940185  RH  052%=      5-min Rain = 0
KOD1 251626Z 24009KT 30/19 A2998 RMK A01 T02960186  RH  052%=      5-min Rain = 0
KOD1 251627Z 25008KT 29/18 A2998 RMK A01 T02940180  RH  050%=      5-min Rain = 0
KOD1 251628Z 25009KT 30/18 A2998 RMK A01 T02950183  RH  051%=      5-min Rain = 0
KOD1 251629Z 26009KT 30/18 A2998 RMK A01 T02950180  RH  050%=      5-min Rain = 0
KOD1 251630Z 27009KT 30/18 A2998 RMK A01 T02960181  RH  050%=      5-min Rain = 0
KOD1 251631Z 27009KT 29/18 A2998 RMK A01 T02940178  RH  050%=      5-min Rain = 0
KOD1 251632Z 26007KT 29/18 A2998 RMK A01 T02930176  RH  049%=      5-min Rain = 0
KOD1 251633Z 27006KT 29/18 A2998 RMK A01 T02930184  RH  052%=      5-min Rain = 0
KOD1 251634Z 26005KT 30/18 A2998 RMK A01 T02960180  RH  050%=      5-min Rain = 0
KOD1 251635Z 24005KT 30/18 A2998 RMK A01 T02960184  RH  051%=      5-min Rain = 0
KOD1 251636Z 24004KT 30/18 A2998 RMK A01 T02960178  RH  049%=      5-min Rain = 0
KOD1 251637Z 23005KT 30/18 A2998 RMK A01 T02950183  RH  051%=      5-min Rain = 0
KOD1 251638Z 22007KT 30/19 A2998 RMK A01 T02970192  RH  053%=      5-min Rain = 0
KOD1 251639Z 24009KT 30/18 A2998 RMK A01 T02980183  RH  050%=      5-min Rain = 0
KOD1 251640Z 25008KT 30/18 A2998 RMK A01 T02960181  RH  050%=      5-min Rain = 0
KOD1 251641Z 23007KT 30/19 A2998 RMK A01 T02960185  RH  051%=      5-min Rain = 0
KOD1 251642Z 22006KT 30/18 A2998 RMK A01 T02960183  RH  051%=      5-min Rain = 0
KOD1 251643Z 21004KT 30/18 A2998 RMK A01 T02960184  RH  051%=      5-min Rain = 0
KOD1 251644Z 20008KT 30/19 A2998 RMK A01 T02970189  RH  052%=      5-min Rain = 0
KOD1 251645Z 22009KT 30/19 A2998 RMK A01 T02980186  RH  051%=      5-min Rain = 0
KOD1 251646Z 24008KT 30/18 A2998 RMK A01 T02960182  RH  050%=      5-min Rain = 0
KOD1 251647Z 25006KT 30/18 A2998 RMK A01 T02950178  RH  049%=      5-min Rain = 0
KOD1 251648Z 22005KT 29/18 A2998 RMK A01 T02940180  RH  050%=      5-min Rain = 0
KOD1 251649Z 21005KT 29/18 A2998 RMK A01 T02940176  RH  049%=      5-min Rain = 0
KOD1 251650Z 23004KT 29/18 A2998 RMK A01 T02930181  RH  051%=      5-min Rain = 0
KOD1 251651Z 23006KT 29/18 A2998 RMK A01 T02940181  RH  051%=      5-min Rain = 0
KOD1 251652Z 24007KT 29/18 A2998 RMK A01 T02940179  RH  050%=      5-min Rain = 0
KOD1 251653Z 24005G10KT 30/19 A2998 RMK A01 T02950185  RH  052%=      5-min Rain = 0
KOD1 251654Z 24006KT 30/18 A2998 RMK A01 T02960181  RH  050%=      5-min Rain = 0
KOD1 251655Z 25006KT 30/18 A2998 RMK A01 T02960182  RH  050%=      5-min Rain = 0
KOD1 251656Z 24005KT 30/18 A2998 RMK A01 T02960181  RH  050%=      5-min Rain = 0
KOD1 251657Z 23004KT 30/18 A2998 RMK A01 T02950180  RH  050%=      5-min Rain = 0
KOD1 251658Z 23004KT 30/18 A2998 RMK A01 T02950182  RH  051%=      5-min Rain = 0
KOD1 251659Z 23006KT 30/19 A2998 RMK A01 T02960188  RH  052%=      5-min Rain = 0
KOD1 251700Z 21008KT 30/19 A2998 RMK A01 T02980185  RH  050%=      5-min Rain = 0
KOD1 251701Z 20007KT 30/18 A2998 RMK A01 T02970183  RH  050%=      5-min Rain = 0
KOD1 251702Z 19005KT 30/18 A2998 RMK A01 T02960180  RH  050%=      5-min Rain = 0
KOD1 251703Z 23002KT 30/18 A2998 RMK A01 T02960178  RH  049%=      5-min Rain = 0
KOD1 251704Z 17002KT 30/18 A2998 RMK A01 T02970180  RH  050%=      5-min Rain = 0
KOD1 251705Z 18005KT 30/18 A2998 RMK A01 T02980182  RH  050%=      5-min Rain = 0
KOD1 251706Z 19004KT 30/18 A2998 RMK A01 T02980182  RH  050%=      5-min Rain = 0
KOD1 251707Z 19006KT 30/19 A2998 RMK A01 T03000190  RH  052%=      5-min Rain = 0
KOD1 251708Z 19006KT 30/19 A2998 RMK A01 T03010186  RH  050%=      5-min Rain = 0
KOD1 251709Z 19003KT 30/19 A2998 RMK A01 T03010185  RH  050%=      5-min Rain = 0
KOD1 251710Z 21005KT 30/19 A2998 RMK A01 T03030193  RH  052%=      5-min Rain = 0
KOD1 251711Z 22007KT 30/19 A2998 RMK A01 T03040189  RH  050%=      5-min Rain = 0
KOD1 251712Z 23008KT 30/18 A2998 RMK A01 T03030184  RH  049%=      5-min Rain = 0
KOD1 251713Z 21005KT 30/18 A2998 RMK A01 T03010181  RH  049%=      5-min Rain = 0
KOD1 251714Z 19004KT 30/18 A2998 RMK A01 T02990178  RH  048%=      5-min Rain = 0
KOD1 251715Z 23003KT 30/18 A2998 RMK A01 T02990178  RH  048%=      5-min Rain = 0
KOD1 251716Z 21003KT 30/19 A2998 RMK A01 T03010188  RH  051%=      5-min Rain = 0
KOD1 251717Z 19005KT 30/19 A2998 RMK A01 T03030185  RH  049%=      5-min Rain = 0
KOD1 251718Z 21005KT 30/19 A2998 RMK A01 T03040186  RH  049%=      5-min Rain = 0
KOD1 251719Z 23005KT 30/18 A2998 RMK A01 T03040184  RH  049%=      5-min Rain = 0
KOD1 251720Z 22004KT 30/18 A2998 RMK A01 T03030181  RH  048%=      5-min Rain = 0
KOD1 251721Z 22004KT 30/19 A2998 RMK A01 T03040189  RH  050%=      5-min Rain = 0
KOD1 251722Z 18004KT 31/18 A2998 RMK A01 T03050183  RH  048%=      5-min Rain = 0
KOD1 251723Z 17005KT 31/19 A2998 RMK A01 T03060187  RH  049%=      5-min Rain = 0
KOD1 251724Z 20008KT 31/19 A2998 RMK A01 T03070189  RH  049%=      5-min Rain = 0
KOD1 251725Z 20010KT 31/19 A2998 RMK A01 T03070186  RH  048%=      5-min Rain = 0
KOD1 251726Z 21010KT 31/18 A2998 RMK A01 T03050182  RH  048%=      5-min Rain = 0
KOD1 251727Z 22008KT 30/19 A2998 RMK A01 T03040188  RH  050%=      5-min Rain = 0
KOD1 251728Z 22007KT 30/18 A2998 RMK A01 T03040181  RH  048%=      5-min Rain = 0
KOD1 251729Z 22007KT 30/18 A2998 RMK A01 T03030183  RH  049%=      5-min Rain = 0
KOD1 251730Z 20005KT 30/18 A2998 RMK A01 T03030184  RH  049%=      5-min Rain = 0
KOD1 251731Z 19004KT 30/18 A2998 RMK A01 T03040182  RH  048%=      5-min Rain = 0
KOD1 251732Z 18004KT 31/18 A2998 RMK A01 T03050184  RH  048%=      5-min Rain = 0
KOD1 251733Z 16005KT 31/18 A2998 RMK A01 T03060184  RH  048%=      5-min Rain = 0
KOD1 251734Z 16004KT 31/19 A2998 RMK A01 T03070187  RH  049%=      5-min Rain = 0
KOD1 251735Z 19005KT 31/19 A2998 RMK A01 T03100187  RH  048%=      5-min Rain = 0
KOD1 251736Z 21004KT 31/18 A2998 RMK A01 T03070178  RH  046%=      5-min Rain = 0
KOD1 251737Z 17006KT 31/19 A2998 RMK A01 T03060187  RH  049%=      5-min Rain = 0
KOD1 251738Z 16005KT 31/18 A2998 RMK A01 T03060179  RH  047%=      5-min Rain = 0
KOD1 251739Z 17005KT 31/18 A2998 RMK A01 T03050183  RH  048%=      5-min Rain = 0
KOD1 251740Z 22006KT 31/19 A2998 RMK A01 T03070191  RH  050%=      5-min Rain = 0
KOD1 251741Z 24006KT 31/19 A2998 RMK A01 T03090189  RH  049%=      5-min Rain = 0
KOD1 251742Z 23006KT 31/19 A2998 RMK A01 T03110190  RH  049%=      5-min Rain = 0
KOD1 251743Z 24006KT 31/18 A2998 RMK A01 T03100183  RH  047%=      5-min Rain = 0
KOD1 251744Z 22006KT 31/19 A2998 RMK A01 T03080186  RH  048%=      5-min Rain = 0
KOD1 251745Z 23004KT 31/18 A2998 RMK A01 T03070178  RH  046%=      5-min Rain = 0
KOD1 251746Z 20004KT 31/18 A2998 RMK A01 T03060182  RH  047%=      5-min Rain = 0
KOD1 251747Z 19006KT 31/19 A2998 RMK A01 T03070185  RH  048%=      5-min Rain = 0
KOD1 251748Z 19005KT 31/19 A2998 RMK A01 T03080185  RH  048%=      5-min Rain = 0
KOD1 251749Z 19003KT 31/18 A2998 RMK A01 T03080183  RH  047%=      5-min Rain = 0
KOD1 251750Z 21002KT 31/18 A2998 RMK A01 T03090179  RH  046%=      5-min Rain = 0
KOD1 251751Z 20003KT 31/18 A2998 RMK A01 T03090178  RH  046%=      5-min Rain = 0
KOD1 251752Z 18005KT 31/19 A2998 RMK A01 T03090187  RH  048%=      5-min Rain = 0
KOD1 251753Z 18004KT 31/19 A2998 RMK A01 T03110186  RH  048%=      5-min Rain = 0
KOD1 251754Z 20007KT 31/19 A2998 RMK A01 T03120188  RH  048%=      5-min Rain = 0
KOD1 251755Z 19007KT 31/19 A2998 RMK A01 T03100188  RH  048%=      5-min Rain = 0
KOD1 251756Z 20007KT 31/19 A2998 RMK A01 T03100188  RH  048%=      5-min Rain = 0
KOD1 251757Z 19007KT 31/19 A2998 RMK A01 T03100186  RH  048%=      5-min Rain = 0
KOD1 251758Z 20007KT 31/19 A2998 RMK A01 T03090187  RH  048%=      5-min Rain = 0
KOD1 251759Z 22006KT 31/18 A2998 RMK A01 T03090183  RH  047%=      5-min Rain = 0
KOD1 251800Z 22005KT 31/18 A2998 RMK A01 T03070178  RH  046%=      5-min Rain = 0
KOD1 251801Z 21004KT 31/18 A2998 RMK A01 T03070180  RH  047%=      5-min Rain = 0
KOD1 251802Z 21005KT 31/19 A2998 RMK A01 T03070187  RH  049%=      5-min Rain = 0
KOD1 251803Z 17008KT 31/19 A2998 RMK A01 T03100192  RH  050%=      5-min Rain = 0
KOD1 251804Z 18004KT 31/19 A2998 RMK A01 T03130190  RH  048%=      5-min Rain = 0
KOD1 251805Z 21006KT 31/19 A2998 RMK A01 T03140190  RH  048%=      5-min Rain = 0
KOD1 251806Z 23006KT 31/19 A2998 RMK A01 T03120190  RH  048%=      5-min Rain = 0
KOD1 251807Z 21005KT 31/19 A2998 RMK A01 T03120188  RH  048%=      5-min Rain = 0
KOD1 251808Z 20005KT 31/19 A2998 RMK A01 T03110186  RH  047%=      5-min Rain = 0
KOD1 251809Z 20008KT 31/19 A2998 RMK A01 T03110192  RH  049%=      5-min Rain = 0
KOD1 251810Z 18009KT 31/19 A2998 RMK A01 T03100192  RH  049%=      5-min Rain = 0
KOD1 251811Z 19008KT 31/18 A2998 RMK A01 T03100184  RH  047%=      5-min Rain = 0
KOD1 251812Z 20007KT 31/19 A2998 RMK A01 T03070188  RH  049%=      5-min Rain = 0
KOD1 251813Z 19007KT 31/19 A2998 RMK A01 T03080191  RH  050%=      5-min Rain = 0
KOD1 251814Z 17009KT 31/19 A2998 RMK A01 T03100191  RH  049%=      5-min Rain = 0
KOD1 251815Z 17007KT 31/19 A2998 RMK A01 T03100187  RH  048%=      5-min Rain = 0
KOD1 251816Z 18007KT 31/19 A2998 RMK A01 T03100188  RH  048%=      5-min Rain = 0
KOD1 251817Z 17004KT 31/18 A2998 RMK A01 T03090184  RH  048%=      5-min Rain = 0
KOD1 251818Z 16002KT 31/19 A2998 RMK A01 T03100188  RH  048%=      5-min Rain = 0
KOD1 251819Z 20005KT 31/19 A2998 RMK A01 T03120193  RH  049%=      5-min Rain = 0
KOD1 251820Z 18008KT 31/19 A2998 RMK A01 T03110191  RH  049%=      5-min Rain = 0
KOD1 251821Z 18006KT 31/19 A2998 RMK A01 T03120194  RH  049%=      5-min Rain = 0
KOD1 251822Z 18007KT 32/20 A2998 RMK A01 T03160199  RH  050%=      5-min Rain = 0
KOD1 251823Z 20007KT 32/19 A2998 RMK A01 T03170189  RH  047%=      5-min Rain = 0
KOD1 251824Z 18006KT 31/19 A2998 RMK A01 T03130186  RH  047%=      5-min Rain = 0
KOD1 251825Z 18004KT 31/19 A2998 RMK A01 T03120192  RH  049%=      5-min Rain = 0
KOD1 251826Z 14007KT 31/19 A2998 RMK A01 T03130188  RH  047%=      5-min Rain = 0
KOD1 251827Z 15006KT 32/19 A2998 RMK A01 T03150189  RH  047%=      5-min Rain = 0
KOD1 251828Z 17005KT 32/19 A2998 RMK A01 T03180194  RH  048%=      5-min Rain = 0
KOD1 251829Z 18006KT 32/19 A2998 RMK A01 T03170192  RH  047%=      5-min Rain = 0
KOD1 251830Z 17009KT 32/19 A2998 RMK A01 T03170194  RH  048%=      5-min Rain = 0
KOD1 251831Z 16009KT 32/20 A2998 RMK A01 T03170196  RH  049%=      5-min Rain = 0
KOD1 251832Z 16008KT 32/20 A2998 RMK A01 T03180195  RH  048%=      5-min Rain = 0
KOD1 251833Z 17007KT 32/19 A2998 RMK A01 T03180190  RH  047%=      5-min Rain = 0
KOD1 251834Z 17005KT 32/19 A2998 RMK A01 T03160186  RH  046%=      5-min Rain = 0
KOD1 251835Z 17007KT 32/20 A2998 RMK A01 T03160196  RH  049%=      5-min Rain = 0
KOD1 251836Z 13007KT 32/19 A2998 RMK A01 T03180187  RH  046%=      5-min Rain = 0
KOD1 251837Z 13006KT 32/18 A2998 RMK A01 T03160182  RH  045%=      5-min Rain = 0
KOD1 251838Z 13006KT 32/18 A2998 RMK A01 T03150184  RH  046%=      5-min Rain = 0
KOD1 251839Z 16007KT 32/19 A2998 RMK A01 T03160185  RH  046%=      5-min Rain = 0
KOD1 251840Z 17007KT 32/19 A2998 RMK A01 T03170189  RH  047%=      5-min Rain = 0
KOD1 251841Z 16006KT 32/19 A2998 RMK A01 T03170188  RH  046%=      5-min Rain = 0
KOD1 251842Z 18004KT 32/19 A2998 RMK A01 T03170190  RH  047%=      5-min Rain = 0
KOD1 251843Z 18004KT 32/19 A2998 RMK A01 T03170190  RH  047%=      5-min Rain = 0
KOD1 251844Z 19008KT 32/19 A2998 RMK A01 T03170191  RH  047%=      5-min Rain = 0
KOD1 251845Z 18007KT 32/18 A2998 RMK A01 T03160184  RH  046%=      5-min Rain = 0
KOD1 251846Z 17004KT 32/19 A2998 RMK A01 T03150188  RH  047%=      5-min Rain = 0
KOD1 251847Z 17006KT 32/19 A2998 RMK A01 T03170190  RH  047%=      5-min Rain = 0
KOD1 251848Z 17006KT 32/19 A2998 RMK A01 T03170187  RH  046%=      5-min Rain = 0
KOD1 251849Z 15004KT 32/20 A2997 RMK A01 T03170195  RH  048%=      5-min Rain = 0
KOD1 251850Z 19004KT 32/19 A2998 RMK A01 T03190188  RH  046%=      5-min Rain = 0
KOD1 251851Z 19005KT 32/19 A2997 RMK A01 T03190189  RH  046%=      5-min Rain = 0
KOD1 251852Z 19006KT 32/20 A2997 RMK A01 T03190198  RH  049%=      5-min Rain = 0
KOD1 251853Z 17007KT 32/19 A2997 RMK A01 T03200190  RH  046%=      5-min Rain = 0
KOD1 251854Z 16005KT 32/19 A2997 RMK A01 T03190191  RH  047%=      5-min Rain = 0
KOD1 251855Z 16009G14KT 32/19 A2997 RMK A01 T03200194  RH  047%=      5-min Rain = 0
KOD1 251856Z 17010KT 32/19 A2997 RMK A01 T03200193  RH  047%=      5-min Rain = 0
KOD1 251857Z 19009KT 32/19 A2997 RMK A01 T03190193  RH  047%=      5-min Rain = 0
KOD1 251858Z 18009KT 32/19 A2997 RMK A01 T03190191  RH  047%=      5-min Rain = 0
KOD1 251859Z 19006KT 32/19 A2997 RMK A01 T03190194  RH  048%=      5-min Rain = 0
KOD1 251900Z 18008KT 32/19 A2997 RMK A01 T03190192  RH  047%=      5-min Rain = 0
KOD1 251901Z 18007KT 32/19 A2997 RMK A01 T03200190  RH  046%=      5-min Rain = 0
KOD1 251902Z 17008KT 32/19 A2997 RMK A01 T03200192  RH  047%=      5-min Rain = 0
KOD1 251903Z 16007KT 32/19 A2997 RMK A01 T03200185  RH  045%=      5-min Rain = 0
KOD1 251904Z 18006KT 32/19 A2997 RMK A01 T03190186  RH  045%=      5-min Rain = 0
KOD1 251905Z 20006KT 32/19 A2997 RMK A01 T03180188  RH  046%=      5-min Rain = 0
KOD1 251906Z 18004KT 32/18 A2997 RMK A01 T03170184  RH  045%=      5-min Rain = 0
KOD1 251907Z 18006KT 32/19 A2997 RMK A01 T03170188  RH  046%=      5-min Rain = 0
KOD1 251908Z 19008KT 32/19 A2997 RMK A01 T03170190  RH  047%=      5-min Rain = 0
KOD1 251909Z 17007KT 32/19 A2997 RMK A01 T03180190  RH  047%=      5-min Rain = 0
KOD1 251910Z 20005KT 32/20 A2997 RMK A01 T03190195  RH  048%=      5-min Rain = 0
KOD1 251911Z 14006KT 32/20 A2997 RMK A01 T03220197  RH  048%=      5-min Rain = 0
KOD1 251912Z 14007KT 32/18 A2997 RMK A01 T03220182  RH  043%=      5-min Rain = 0
KOD1 251913Z 16008KT 32/18 A2997 RMK A01 T03230182  RH  043%=      5-min Rain = 0
KOD1 251914Z 17006KT 32/18 A2997 RMK A01 T03220179  RH  043%=      5-min Rain = 0
KOD1 251915Z 12006KT 32/18 A2997 RMK A01 T03210178  RH  043%=      5-min Rain = 0
KOD1 251916Z 08004KT 32/18 A2997 RMK A01 T03220181  RH  043%=      5-min Rain = 0
KOD1 251917Z 12006KT 32/18 A2997 RMK A01 T03240180  RH  042%=      5-min Rain = 0
KOD1 251918Z 18009KT 33/19 A2997 RMK A01 T03260188  RH  044%=      5-min Rain = 0
KOD1 251919Z 16009KT 33/19 A2997 RMK A01 T03250189  RH  045%=      5-min Rain = 0
KOD1 251920Z 16007KT 33/19 A2997 RMK A01 T03250192  RH  046%=      5-min Rain = 0
KOD1 251921Z 16008KT 33/19 A2997 RMK A01 T03250185  RH  044%=      5-min Rain = 0
KOD1 251922Z 17006KT 32/19 A2997 RMK A01 T03240185  RH  044%=      5-min Rain = 0
KOD1 251923Z 18006KT 32/19 A2997 RMK A01 T03240186  RH  044%=      5-min Rain = 0
KOD1 251924Z 17004KT 32/18 A2997 RMK A01 T03220184  RH  044%=      5-min Rain = 0
KOD1 251925Z 18005KT 32/19 A2997 RMK A01 T03230190  RH  045%=      5-min Rain = 0
KOD1 251926Z 17007KT 33/19 A2997 RMK A01 T03250193  RH  046%=      5-min Rain = 0
KOD1 251927Z 17011KT 33/19 A2997 RMK A01 T03260191  RH  045%=      5-min Rain = 0
KOD1 251928Z 16010KT 32/19 A2997 RMK A01 T03240185  RH  044%=      5-min Rain = 0
KOD1 251929Z 16008KT 32/19 A2997 RMK A01 T03220186  RH  044%=      5-min Rain = 0
KOD1 251930Z 15007KT 32/19 A2997 RMK A01 T03220185  RH  044%=      5-min Rain = 0
KOD1 251931Z 16007KT 32/19 A2997 RMK A01 T03220186  RH  044%=      5-min Rain = 0
KOD1 251932Z 17006KT 32/19 A2997 RMK A01 T03230189  RH  045%=      5-min Rain = 0
KOD1 251933Z 21004KT 32/19 A2997 RMK A01 T03230187  RH  045%=      5-min Rain = 0
KOD1 251934Z 19005KT 32/19 A2997 RMK A01 T03230189  RH  045%=      5-min Rain = 0
KOD1 251935Z 17005KT 32/19 A2997 RMK A01 T03240194  RH  046%=      5-min Rain = 0
KOD1 251936Z 19004KT 33/19 A2997 RMK A01 T03270191  RH  045%=      5-min Rain = 0
KOD1 251937Z 19006KT 33/19 A2996 RMK A01 T03280191  RH  044%=      5-min Rain = 0
KOD1 251938Z 18007KT 33/19 A2996 RMK A01 T03270190  RH  044%=      5-min Rain = 0
KOD1 251939Z 20005KT 33/19 A2996 RMK A01 T03270194  RH  045%=      5-min Rain = 0
KOD1 251940Z 19007KT 33/19 A2996 RMK A01 T03280192  RH  045%=      5-min Rain = 0
KOD1 251941Z 19005KT 33/19 A2996 RMK A01 T03260190  RH  045%=      5-min Rain = 0
KOD1 251942Z 19007KT 33/19 A2996 RMK A01 T03260191  RH  045%=      5-min Rain = 0
KOD1 251943Z 18005KT 33/19 A2996 RMK A01 T03250189  RH  045%=      5-min Rain = 0
KOD1 251944Z 17008KT 33/19 A2996 RMK A01 T03260193  RH  045%=      5-min Rain = 0
KOD1 251945Z 17010KT 33/20 A2996 RMK A01 T03280198  RH  047%=      5-min Rain = 0
KOD1 251946Z 17008KT 33/20 A2996 RMK A01 T03290196  RH  046%=      5-min Rain = 0
KOD1 251947Z 17009KT 33/19 A2996 RMK A01 T03290194  RH  045%=      5-min Rain = 0
KOD1 251948Z 16008KT 33/20 A2996 RMK A01 T03290196  RH  045%=      5-min Rain = 0
KOD1 251949Z 16008KT 33/19 A2996 RMK A01 T03290192  RH  044%=      5-min Rain = 0
KOD1 251950Z 14008KT 33/19 A2996 RMK A01 T03300189  RH  044%=      5-min Rain = 0
KOD1 251951Z 13008KT 33/18 A2996 RMK A01 T03300184  RH  042%=      5-min Rain = 0
KOD1 251952Z 10004KT 33/18 A2996 RMK A01 T03280181  RH  042%=      5-min Rain = 0
KOD1 251953Z 17004KT 33/19 A2996 RMK A01 T03280190  RH  044%=      5-min Rain = 0
KOD1 251954Z 18005KT 33/19 A2996 RMK A01 T03290189  RH  044%=      5-min Rain = 0
KOD1 251955Z 20006KT 33/19 A2996 RMK A01 T03290190  RH  044%=      5-min Rain = 0
KOD1 251956Z 19007KT 33/19 A2996 RMK A01 T03290190  RH  044%=      5-min Rain = 0
KOD1 251957Z 18006KT 33/19 A2996 RMK A01 T03280186  RH  043%=      5-min Rain = 0
KOD1 251958Z 14005KT 33/19 A2996 RMK A01 T03290190  RH  044%=      5-min Rain = 0
KOD1 251959Z 13006KT 33/19 A2996 RMK A01 T03320188  RH  043%=      5-min Rain = 0
KOD1 252000Z 14007KT 33/19 A2996 RMK A01 T03330186  RH  042%=      5-min Rain = 0
KOD1 252001Z 17008KT 34/19 A2996 RMK A01 T03350192  RH  043%=      5-min Rain = 0
KOD1 252002Z 18008KT 33/19 A2996 RMK A01 T03340191  RH  043%=      5-min Rain = 0
KOD1 252003Z 17008KT 33/19 A2996 RMK A01 T03310189  RH  043%=      5-min Rain = 0
KOD1 252004Z 17006KT 33/19 A2996 RMK A01 T03300190  RH  044%=      5-min Rain = 0
KOD1 252005Z 17006KT 33/19 A2996 RMK A01 T03290187  RH  043%=      5-min Rain = 0
KOD1 252006Z 15005KT 33/18 A2996 RMK A01 T03280183  RH  042%=      5-min Rain = 0
KOD1 252007Z 17006KT 33/19 A2995 RMK A01 T03290187  RH  043%=      5-min Rain = 0
KOD1 252008Z 16007KT 33/19 A2995 RMK A01 T03290187  RH  043%=      5-min Rain = 0
KOD1 252009Z 17005KT 33/18 A2995 RMK A01 T03290184  RH  042%=      5-min Rain = 0
KOD1 252010Z 16009KT 33/19 A2995 RMK A01 T03300192  RH  044%=      5-min Rain = 0
KOD1 252011Z 15007KT 33/19 A2995 RMK A01 T03300188  RH  043%=      5-min Rain = 0
KOD1 252012Z 15010KT 33/19 A2995 RMK A01 T03300187  RH  043%=      5-min Rain = 0
KOD1 252013Z 15008KT 33/18 A2995 RMK A01 T03310182  RH  041%=      5-min Rain = 0
KOD1 252014Z 14009KT 33/18 A2995 RMK A01 T03300184  RH  042%=      5-min Rain = 0
KOD1 252015Z 13006KT 33/18 A2995 RMK A01 T03280181  RH  042%=      5-min Rain = 0
KOD1 252016Z 14006KT 33/18 A2995 RMK A01 T03280184  RH  042%=      5-min Rain = 0
KOD1 252017Z 14008KT 33/19 A2995 RMK A01 T03290187  RH  043%=      5-min Rain = 0
KOD1 252018Z 14009KT 33/19 A2995 RMK A01 T03320190  RH  043%=      5-min Rain = 0
KOD1 252019Z 13007KT 33/18 A2995 RMK A01 T03340183  RH  041%=      5-min Rain = 0
KOD1 252020Z 16009KT 33/19 A2995 RMK A01 T03330190  RH  043%=      5-min Rain = 0
KOD1 252021Z 15008KT 33/19 A2995 RMK A01 T03320186  RH  042%=      5-min Rain = 0
KOD1 252022Z 14008KT 33/19 A2995 RMK A01 T03310189  RH  043%=      5-min Rain = 0
KOD1 252023Z 16006KT 33/20 A2995 RMK A01 T03340195  RH  044%=      5-min Rain = 0
KOD1 252024Z 17003KT 33/19 A2995 RMK A01 T03340190  RH  043%=      5-min Rain = 0
KOD1 252025Z 13004KT 33/19 A2995 RMK A01 T03330189  RH  043%=      5-min Rain = 0
KOD1 252026Z 11006G11KT 33/19 A2995 RMK A01 T03340190  RH  043%=      5-min Rain = 0
KOD1 252027Z 13007KT 34/19 A2995 RMK A01 T03350187  RH  042%=      5-min Rain = 0
KOD1 252028Z 15013KT 34/19 A2995 RMK A01 T03350188  RH  042%=      5-min Rain = 0
KOD1 252029Z 14012KT 33/19 A2995 RMK A01 T03340187  RH  042%=      5-min Rain = 0
KOD1 252030Z 15011KT 34/19 A2995 RMK A01 T03360192  RH  043%=      5-min Rain = 0
KOD1 252031Z 14010KT 34/19 A2995 RMK A01 T03350185  RH  041%=      5-min Rain = 0
KOD1 252032Z 15007KT 33/19 A2995 RMK A01 T03330185  RH  042%=      5-min Rain = 0
KOD1 252033Z 15008KT 33/19 A2995 RMK A01 T03320185  RH  042%=      5-min Rain = 0
KOD1 252034Z 16007KT 33/19 A2995 RMK A01 T03330186  RH  042%=      5-min Rain = 0
KOD1 252035Z 14009KT 33/19 A2995 RMK A01 T03320186  RH  042%=      5-min Rain = 0
KOD1 252036Z 13008KT 33/18 A2995 RMK A01 T03310184  RH  042%=      5-min Rain = 0
KOD1 252037Z 12006KT 33/18 A2995 RMK A01 T03310183  RH  042%=      5-min Rain = 0
KOD1 252038Z 16010KT 33/19 A2995 RMK A01 T03300189  RH  043%=      5-min Rain = 0
KOD1 252039Z 15011KT 33/19 A2995 RMK A01 T03310186  RH  042%=      5-min Rain = 0
KOD1 252040Z 16006G11KT 33/18 A2994 RMK A01 T03290183  RH  042%=      5-min Rain = 0
KOD1 252041Z 16008KT 33/19 A2994 RMK A01 T03290187  RH  043%=      5-min Rain = 0
KOD1 252042Z 15008KT 33/19 A2994 RMK A01 T03290191  RH  044%=      5-min Rain = 0
KOD1 252043Z 15009KT 33/19 A2994 RMK A01 T03300189  RH  043%=      5-min Rain = 0
KOD1 252044Z 15010KT 33/18 A2994 RMK A01 T03310183  RH  042%=      5-min Rain = 0
KOD1 252045Z 17007KT 33/18 A2994 RMK A01 T03290183  RH  042%=      5-min Rain = 0
KOD1 252046Z 17007KT 33/19 A2994 RMK A01 T03290191  RH  044%=      5-min Rain = 0
KOD1 252047Z 14006KT 33/19 A2994 RMK A01 T03300190  RH  044%=      5-min Rain = 0
KOD1 252048Z 14008G13KT 33/19 A2994 RMK A01 T03320186  RH  042%=      5-min Rain = 0
KOD1 252049Z 15009KT 33/19 A2994 RMK A01 T03330190  RH  043%=      5-min Rain = 0
KOD1 252050Z 13012KT 33/19 A2994 RMK A01 T03340187  RH  042%=      5-min Rain = 0
KOD1 252051Z 13011KT 34/18 A2994 RMK A01 T03350183  RH  040%=      5-min Rain = 0
KOD1 252052Z 14008KT 34/18 A2994 RMK A01 T03360184  RH  041%=      5-min Rain = 0
KOD1 252053Z 14008KT 33/18 A2994 RMK A01 T03340182  RH  041%=      5-min Rain = 0
KOD1 252054Z 15006KT 33/20 A2994 RMK A01 T03340195  RH  044%=      5-min Rain = 0
KOD1 252055Z 15008KT 34/20 A2994 RMK A01 T03370196  RH  043%=      5-min Rain = 0
KOD1 252056Z 17009KT 34/19 A2994 RMK A01 T03380193  RH  042%=      5-min Rain = 0
KOD1 252057Z 17008KT 33/19 A2994 RMK A01 T03340188  RH  042%=      5-min Rain = 0
KOD1 252058Z 17008KT 33/19 A2994 RMK A01 T03320191  RH  043%=      5-min Rain = 0
KOD1 252059Z 16008KT 33/19 A2994 RMK A01 T03310191  RH  044%=      5-min Rain = 0
KOD1 252100Z 15010KT 33/19 A2994 RMK A01 T03320190  RH  043%=      5-min Rain = 0
KOD1 252101Z 16014KT 34/19 A2994 RMK A01 T03350190  RH  043%=      5-min Rain = 0
KOD1 252102Z 15013KT 33/19 A2994 RMK A01 T03340188  RH  042%=      5-min Rain = 0
KOD1 252103Z 15008KT 33/19 A2994 RMK A01 T03340185  RH  041%=      5-min Rain = 0
KOD1 252104Z 15006KT 33/18 A2994 RMK A01 T03340184  RH  041%=      5-min Rain = 0
KOD1 252105Z 14005KT 34/19 A2994 RMK A01 T03350193  RH  043%=      5-min Rain = 0
KOD1 252106Z 14012KT 34/19 A2994 RMK A01 T03380186  RH  041%=      5-min Rain = 0
KOD1 252107Z 15013KT 34/19 A2994 RMK A01 T03380186  RH  041%=      5-min Rain = 0
KOD1 252108Z 16013KT 34/19 A2994 RMK A01 T03370186  RH  041%=      5-min Rain = 0
KOD1 252109Z 16011KT 34/19 A2994 RMK A01 T03350186  RH  042%=      5-min Rain = 0
KOD1 252110Z 15007KT 33/19 A2994 RMK A01 T03340188  RH  042%=      5-min Rain = 0
KOD1 252111Z 14008KT 34/19 A2994 RMK A01 T03360186  RH  041%=      5-min Rain = 0
KOD1 252112Z 15009KT 34/18 A2994 RMK A01 T03350182  RH  040%=      5-min Rain = 0
KOD1 252113Z 15009KT 34/18 A2993 RMK A01 T03350184  RH  041%=      5-min Rain = 0
KOD1 252114Z 16010KT 34/19 A2993 RMK A01 T03350187  RH  042%=      5-min Rain = 0
KOD1 252115Z 15010KT 34/19 A2993 RMK A01 T03360187  RH  042%=      5-min Rain = 0
KOD1 252116Z 15011KT 34/19 A2993 RMK A01 T03360186  RH  041%=      5-min Rain = 0
KOD1 252117Z 15011KT 34/19 A2993 RMK A01 T03370190  RH  042%=      5-min Rain = 0
KOD1 252118Z 13010KT 34/19 A2993 RMK A01 T03370185  RH  041%=      5-min Rain = 0
KOD1 252119Z 15008KT 34/19 A2993 RMK A01 T03370185  RH  041%=      5-min Rain = 0
KOD1 252120Z 17010KT 34/19 A2993 RMK A01 T03370192  RH  042%=      5-min Rain = 0
KOD1 252121Z 17011KT 34/19 A2993 RMK A01 T03350186  RH  041%=      5-min Rain = 0
KOD1 252122Z 16014KT 33/19 A2993 RMK A01 T03320187  RH  042%=      5-min Rain = 0
KOD1 252123Z 15012KT 33/19 A2993 RMK A01 T03320186  RH  042%=      5-min Rain = 0
KOD1 252124Z 15010KT 33/19 A2993 RMK A01 T03330185  RH  042%=      5-min Rain = 0
KOD1 252125Z 15009KT 34/19 A2993 RMK A01 T03350188  RH  042%=      5-min Rain = 0
KOD1 252126Z 14012KT 34/19 A2993 RMK A01 T03360188  RH  042%=      5-min Rain = 0
KOD1 252127Z 14012KT 34/18 A2993 RMK A01 T03360179  RH  039%=      5-min Rain = 0
KOD1 252128Z 15012KT 34/18 A2993 RMK A01 T03370181  RH  040%=      5-min Rain = 0
KOD1 252129Z 16013KT 34/18 A2993 RMK A01 T03360184  RH  041%=      5-min Rain = 0
KOD1 252130Z 16012KT 33/19 A2993 RMK A01 T03340186  RH  041%=      5-min Rain = 0
KOD1 252131Z 16011KT 33/19 A2993 RMK A01 T03330185  RH  041%=      5-min Rain = 0
KOD1 252132Z 16009KT 33/19 A2993 RMK A01 T03320186  RH  042%=      5-min Rain = 0
KOD1 252133Z 15011KT 33/19 A2993 RMK A01 T03330185  RH  042%=      5-min Rain = 0
KOD1 252134Z 16012KT 33/18 A2993 RMK A01 T03320180  RH  040%=      5-min Rain = 0
KOD1 252135Z 15011KT 33/19 A2993 RMK A01 T03320186  RH  042%=      5-min Rain = 0
KOD1 252136Z 15010KT 33/19 A2993 RMK A01 T03340193  RH  043%=      5-min Rain = 0
KOD1 252137Z 16012KT 34/19 A2993 RMK A01 T03370191  RH  042%=      5-min Rain = 0
KOD1 252138Z 17013KT 34/19 A2993 RMK A01 T03360187  RH  042%=      5-min Rain = 0
KOD1 252139Z 18010KT 33/19 A2992 RMK A01 T03310185  RH  042%=      5-min Rain = 0
KOD1 252140Z 17011KT 33/19 A2992 RMK A01 T03310190  RH  044%=      5-min Rain = 0
KOD1 252141Z 16013KT 33/19 A2992 RMK A01 T03310187  RH  042%=      5-min Rain = 0
KOD1 252142Z 15011KT 33/19 A2992 RMK A01 T03310189  RH  043%=      5-min Rain = 0
KOD1 252143Z 13013KT 33/18 A2992 RMK A01 T03330180  RH  040%=      5-min Rain = 0
KOD1 252144Z 13012KT 33/18 A2992 RMK A01 T03330178  RH  040%=      5-min Rain = 0
KOD1 252145Z 14008KT 33/18 A2992 RMK A01 T03340181  RH  040%=      5-min Rain = 0
KOD1 252146Z 13010KT 34/18 A2992 RMK A01 T03370183  RH  040%=      5-min Rain = 0
KOD1 252147Z 13012KT 34/18 A2992 RMK A01 T03410181  RH  039%=      5-min Rain = 0
KOD1 252148Z 15013KT 34/18 A2992 RMK A01 T03390181  RH  039%=      5-min Rain = 0
KOD1 252149Z 13014KT 34/18 A2992 RMK A01 T03390181  RH  039%=      5-min Rain = 0
KOD1 252150Z 13014KT 34/18 A2992 RMK A01 T03380176  RH  038%=      5-min Rain = 0
KOD1 252151Z 12014KT 34/18 A2992 RMK A01 T03380175  RH  038%=      5-min Rain = 0
KOD1 252152Z 14015KT 34/18 A2992 RMK A01 T03370175  RH  038%=      5-min Rain = 0
KOD1 252153Z 13013KT 34/17 A2992 RMK A01 T03360172  RH  038%=      5-min Rain = 0
KOD1 252154Z 13012KT 34/17 A2992 RMK A01 T03360174  RH  038%=      5-min Rain = 0
KOD1 252155Z 14013KT 34/17 A2992 RMK A01 T03360174  RH  038%=      5-min Rain = 0
KOD1 252156Z 16014KT 34/18 A2992 RMK A01 T03360180  RH  040%=      5-min Rain = 0
KOD1 252157Z 16015KT 33/18 A2992 RMK A01 T03340183  RH  041%=      5-min Rain = 0
KOD1 252158Z 16014KT 33/18 A2992 RMK A01 T03330182  RH  041%=      5-min Rain = 0
KOD1 252159Z 16011KT 33/18 A2992 RMK A01 T03330181  RH  040%=      5-min Rain = 0
KOD1 252200Z 16009KT 33/18 A2992 RMK A01 T03330181  RH  041%=      5-min Rain = 0
KOD1 252201Z 16008KT 33/19 A2992 RMK A01 T03330186  RH  042%=      5-min Rain = 0
KOD1 252202Z 15011KT 33/18 A2992 RMK A01 T03340184  RH  041%=      5-min Rain = 0
KOD1 252203Z 17012KT 34/19 A2992 RMK A01 T03350186  RH  041%=      5-min Rain = 0
KOD1 252204Z 16012KT 33/19 A2992 RMK A01 T03340187  RH  042%=      5-min Rain = 0
KOD1 252205Z 15011KT 33/19 A2992 RMK A01 T03340186  RH  042%=      5-min Rain = 0
KOD1 252206Z 15012KT 34/18 A2992 RMK A01 T03350181  RH  040%=      5-min Rain = 0
KOD1 252207Z 14009KT 33/18 A2992 RMK A01 T03340181  RH  040%=      5-min Rain = 0
KOD1 252208Z 15010KT 34/18 A2992 RMK A01 T03360181  RH  040%=      5-min Rain = 0
KOD1 252209Z 14014KT 34/18 A2992 RMK A01 T03360177  RH  039%=      5-min Rain = 0
KOD1 252210Z 15013KT 33/18 A2992 RMK A01 T03340177  RH  039%=      5-min Rain = 0
KOD1 252211Z 16011KT 33/18 A2992 RMK A01 T03340181  RH  040%=      5-min Rain = 0
KOD1 252212Z 16011KT 33/19 A2992 RMK A01 T03320185  RH  042%=      5-min Rain = 0
KOD1 252213Z 15010KT 33/18 A2992 RMK A01 T03310183  RH  041%=      5-min Rain = 0
KOD1 252214Z 17013KT 33/19 A2992 RMK A01 T03310187  RH  043%=      5-min Rain = 0
KOD1 252215Z 14015KT 33/18 A2992 RMK A01 T03310183  RH  042%=      5-min Rain = 0
KOD1 252216Z 15013KT 33/18 A2992 RMK A01 T03310183  RH  041%=      5-min Rain = 0
KOD1 252217Z 14012KT 33/19 A2992 RMK A01 T03310186  RH  042%=      5-min Rain = 0
KOD1 252218Z 13013KT 33/18 A2992 RMK A01 T03320181  RH  041%=      5-min Rain = 0
KOD1 252219Z 13010KT 33/18 A2992 RMK A01 T03340184  RH  041%=      5-min Rain = 0
KOD1 252220Z 14013KT 34/18 A2992 RMK A01 T03360182  RH  040%=      5-min Rain = 0
KOD1 252221Z 14013KT 34/19 A2992 RMK A01 T03350185  RH  041%=      5-min Rain = 0
KOD1 252222Z 14011KT 34/19 A2992 RMK A01 T03360187  RH  041%=      5-min Rain = 0
KOD1 252223Z 16011KT 34/19 A2992 RMK A01 T03350187  RH  042%=      5-min Rain = 0
KOD1 252224Z 15013KT 34/19 A2992 RMK A01 T03350192  RH  043%=      5-min Rain = 0
KOD1 252225Z 15013KT 34/19 A2992 RMK A01 T03350186  RH  041%=      5-min Rain = 0
KOD1 252226Z 14010KT 33/19 A2992 RMK A01 T03340186  RH  042%=      5-min Rain = 0
KOD1 252227Z 14011KT 33/19 A2992 RMK A01 T03340190  RH  042%=      5-min Rain = 0
KOD1 252228Z 15015G20KT 34/19 A2992 RMK A01 T03370187  RH  041%=      5-min Rain = 0
KOD1 252229Z 16014KT 33/19 A2992 RMK A01 T03330188  RH  042%=      5-min Rain = 0
KOD1 252230Z 16015KT 33/19 A2992 RMK A01 T03310187  RH  043%=      5-min Rain = 0
KOD1 252231Z 16015KT 33/19 A2992 RMK A01 T03290189  RH  044%=      5-min Rain = 0
KOD1 252232Z 15015KT 33/19 A2992 RMK A01 T03280186  RH  043%=      5-min Rain = 0
KOD1 252233Z 15013KT 33/19 A2992 RMK A01 T03290186  RH  043%=      5-min Rain = 0
KOD1 252234Z 15014KT 33/19 A2992 RMK A01 T03300188  RH  043%=      5-min Rain = 0
KOD1 252235Z 15012KT 33/19 A2991 RMK A01 T03330189  RH  043%=      5-min Rain = 0
KOD1 252236Z 15012KT 33/19 A2991 RMK A01 T03340190  RH  043%=      5-min Rain = 0
KOD1 252237Z 15013KT 34/19 A2992 RMK A01 T03360191  RH  042%=      5-min Rain = 0
KOD1 252238Z 15012KT 34/19 A2991 RMK A01 T03350189  RH  042%=      5-min Rain = 0
KOD1 252239Z 13013KT 34/18 A2992 RMK A01 T03350182  RH  041%=      5-min Rain = 0
KOD1 252240Z 14014KT 34/18 A2992 RMK A01 T03350181  RH  040%=      5-min Rain = 0
KOD1 252241Z 14014KT 34/18 A2991 RMK A01 T03360184  RH  041%=      5-min Rain = 0
KOD1 252242Z 15014KT 34/18 A2991 RMK A01 T03350182  RH  040%=      5-min Rain = 0
KOD1 252243Z 15016KT 33/18 A2991 RMK A01 T03320183  RH  041%=      5-min Rain = 0
KOD1 252244Z 13016KT 33/18 A2991 RMK A01 T03320180  RH  040%=      5-min Rain = 0
KOD1 252245Z 13015KT 33/18 A2991 RMK A01 T03330178  RH  040%=      5-min Rain = 0
KOD1 252246Z 13014KT 34/18 A2992 RMK A01 T03350180  RH  040%=      5-min Rain = 0
KOD1 252247Z 13013KT 33/18 A2992 RMK A01 T03340178  RH  040%=      5-min Rain = 0
KOD1 252248Z 14013KT 33/18 A2991 RMK A01 T03340181  RH  040%=      5-min Rain = 0
KOD1 252249Z 13014KT 34/18 A2991 RMK A01 T03350181  RH  040%=      5-min Rain = 0
KOD1 252250Z 14016KT 34/18 A2991 RMK A01 T03350182  RH  041%=      5-min Rain = 0
KOD1 252251Z 12016KT 33/18 A2991 RMK A01 T03340180  RH  040%=      5-min Rain = 0
KOD1 252252Z 13014KT 33/18 A2991 RMK A01 T03330176  RH  039%=      5-min Rain = 0
KOD1 252253Z 13012KT 33/18 A2991 RMK A01 T03320178  RH  040%=      5-min Rain = 0
KOD1 252254Z 12014KT 33/18 A2991 RMK A01 T03330175  RH  039%=      5-min Rain = 0
KOD1 252255Z 12013KT 33/18 A2991 RMK A01 T03330175  RH  039%=      5-min Rain = 0
KOD1 252256Z 13011KT 34/18 A2991 RMK A01 T03350180  RH  040%=      5-min Rain = 0
KOD1 252257Z 14014KT 34/18 A2991 RMK A01 T03350177  RH  039%=      5-min Rain = 0
KOD1 252258Z 14013KT 34/18 A2991 RMK A01 T03350182  RH  040%=      5-min Rain = 0
KOD1 252259Z 12010G16KT 34/18 A2991 RMK A01 T03350180  RH  040%=      5-min Rain = 0
KOD1 252300Z 12012KT 34/18 A2991 RMK A01 T03350180  RH  040%=      5-min Rain = 0
KOD1 252301Z 13011KT 34/18 A2991 RMK A01 T03350182  RH  040%=      5-min Rain = 0
KOD1 252302Z 13014KT 34/18 A2991 RMK A01 T03360184  RH  041%=      5-min Rain = 0
KOD1 252303Z 13016KT 34/18 A2991 RMK A01 T03350183  RH  041%=      5-min Rain = 0
KOD1 252304Z 14017KT 33/18 A2992 RMK A01 T03330182  RH  041%=      5-min Rain = 0
KOD1 252305Z 14014KT 33/18 A2992 RMK A01 T03320183  RH  041%=      5-min Rain = 0
KOD1 252306Z 13014KT 33/18 A2991 RMK A01 T03330181  RH  041%=      5-min Rain = 0
KOD1 252307Z 13013KT 33/18 A2991 RMK A01 T03320179  RH  040%=      5-min Rain = 0
KOD1 252308Z 14014KT 33/18 A2991 RMK A01 T03320181  RH  041%=      5-min Rain = 0
KOD1 252309Z 14011KT 33/18 A2991 RMK A01 T03320181  RH  041%=      5-min Rain = 0
KOD1 252310Z 15015KT 33/18 A2991 RMK A01 T03330184  RH  042%=      5-min Rain = 0
KOD1 252311Z 14013KT 33/18 A2991 RMK A01 T03310181  RH  041%=      5-min Rain = 0
KOD1 252312Z 14014KT 33/18 A2991 RMK A01 T03310182  RH  041%=      5-min Rain = 0
KOD1 252313Z 14014KT 33/18 A2991 RMK A01 T03300179  RH  041%=      5-min Rain = 0
KOD1 252314Z 13013KT 33/18 A2991 RMK A01 T03300177  RH  040%=      5-min Rain = 0
KOD1 252315Z 12013KT 33/18 A2991 RMK A01 T03300178  RH  040%=      5-min Rain = 0
KOD1 252316Z 13013KT 33/18 A2991 RMK A01 T03300177  RH  040%=      5-min Rain = 0
KOD1 252317Z 13013KT 33/18 A2991 RMK A01 T03280176  RH  040%=      5-min Rain = 0
KOD1 252318Z 13011KT 33/18 A2991 RMK A01 T03270176  RH  041%=      5-min Rain = 0
KOD1 252319Z 14012KT 33/18 A2991 RMK A01 T03280176  RH  040%=      5-min Rain = 0
KOD1 252320Z 15009KT 33/18 A2991 RMK A01 T03290182  RH  042%=      5-min Rain = 0
KOD1 252321Z 14008KT 33/18 A2991 RMK A01 T03300184  RH  042%=      5-min Rain = 0
KOD1 252322Z 15013KT 33/18 A2991 RMK A01 T03310182  RH  041%=      5-min Rain = 0
KOD1 252323Z 15014KT 33/18 A2991 RMK A01 T03300179  RH  041%=      5-min Rain = 0
KOD1 252324Z 15012KT 33/18 A2991 RMK A01 T03290181  RH  041%=      5-min Rain = 0
KOD1 252325Z 15011KT 33/19 A2991 RMK A01 T03300185  RH  042%=      5-min Rain = 0
KOD1 252326Z 16011KT 33/18 A2991 RMK A01 T03300182  RH  042%=      5-min Rain = 0
KOD1 252327Z 16010KT 33/19 A2991 RMK A01 T03280186  RH  043%=      5-min Rain = 0
KOD1 252328Z 15011KT 33/18 A2991 RMK A01 T03260183  RH  043%=      5-min Rain = 0
KOD1 252329Z 15011KT 33/18 A2991 RMK A01 T03260182  RH  043%=      5-min Rain = 0
KOD1 252330Z 14011KT 33/18 A2991 RMK A01 T03260182  RH  042%=      5-min Rain = 0
KOD1 252331Z 14011KT 33/18 A2991 RMK A01 T03260181  RH  042%=      5-min Rain = 0
KOD1 252332Z 13014KT 33/18 A2991 RMK A01 T03260179  RH  042%=      5-min Rain = 0
KOD1 252333Z 14013KT 33/18 A2991 RMK A01 T03270181  RH  042%=      5-min Rain = 0
KOD1 252334Z 15013KT 33/18 A2991 RMK A01 T03280179  RH  041%=      5-min Rain = 0
KOD1 252335Z 14013KT 33/18 A2991 RMK A01 T03280181  RH  042%=      5-min Rain = 0
KOD1 252336Z 14013KT 33/18 A2991 RMK A01 T03280180  RH  042%=      5-min Rain = 0
KOD1 252337Z 15013KT 33/18 A299 RMK A01 T03270180  RH  042%=      5-min Rain = 0
KOD1 252338Z 15012KT 33/18 A299 RMK A01 T03270183  RH  043%=      5-min Rain = 0
KOD1 252339Z 15014KT 33/18 A299 RMK A01 T03260183  RH  043%=      5-min Rain = 0
KOD1 252340Z 14013KT 33/18 A299 RMK A01 T03250180  RH  042%=      5-min Rain = 0
KOD1 252341Z 15012KT 33/18 A299 RMK A01 T03250180  RH  042%=      5-min Rain = 0
KOD1 252342Z 14012KT 33/18 A299 RMK A01 T03250180  RH  042%=      5-min Rain = 0
KOD1 252343Z 14013KT 32/18 A299 RMK A01 T03240178  RH  042%=      5-min Rain = 0
KOD1 252344Z 14014KT 32/18 A299 RMK A01 T03240175  RH  041%=      5-min Rain = 0
KOD1 252345Z 14012KT 32/18 A299 RMK A01 T03230176  RH  041%=      5-min Rain = 0
KOD1 252346Z 15011KT 32/18 A299 RMK A01 T03220177  RH  042%=      5-min Rain = 0
KOD1 252347Z 15010KT 32/18 A299 RMK A01 T03200178  RH  043%=      5-min Rain = 0
KOD1 252348Z 13012KT 32/18 A299 RMK A01 T03190177  RH  043%=      5-min Rain = 0
KOD1 252349Z 13014KT 32/17 A299 RMK A01 T03180173  RH  042%=      5-min Rain = 0
KOD1 252350Z 15013KT 32/18 A299 RMK A01 T03170175  RH  043%=      5-min Rain = 0
KOD1 252351Z 14013KT 32/17 A299 RMK A01 T03170174  RH  043%=      5-min Rain = 0
KOD1 252352Z 13012KT 32/17 A299 RMK A01 T03160173  RH  042%=      5-min Rain = 0
KOD1 252353Z 13012KT 32/17 A299 RMK A01 T03160171  RH  042%=      5-min Rain = 0
KOD1 252354Z 14014KT 32/17 A299 RMK A01 T03160172  RH  042%=      5-min Rain = 0
KOD1 252355Z 15011KT 32/17 A2991 RMK A01 T03160174  RH  043%=      5-min Rain = 0
KOD1 252356Z 14012G17KT 31/17 A2991 RMK A01 T03140174  RH  043%=      5-min Rain = 0
KOD1 252357Z 14012KT 31/17 A2991 RMK A01 T03140171  RH  042%=      5-min Rain = 0
KOD1 252358Z 14011KT 31/17 A2991 RMK A01 T03140173  RH  043%=      5-min Rain = 0
KOD1 252359Z 14012KT 31/17 A2992 RMK A01 T03130174  RH  043%=      5-min Rain = 0
KOD1 260000Z 14012KT 31/18 A2992 RMK A01 T03130175  RH  044%=      5-min Rain = 0
KOD1 260001Z 14013KT 31/17 A2992 RMK A01 T03120173  RH  043%=      5-min Rain = 0
KOD1 260002Z 14010KT 31/17 A2992 RMK A01 T03120174  RH  043%=      5-min Rain = 0
KOD1 260003Z 14010KT 31/17 A2992 RMK A01 T03130174  RH  044%=      5-min Rain = 0
KOD1 260004Z 14010KT 31/17 A2992 RMK A01 T03130174  RH  043%=      5-min Rain = 0
KOD1 260005Z 14009KT 31/18 A2992 RMK A01 T03130177  RH  044%=      5-min Rain = 0
KOD1 260006Z 15010KT 31/18 A2992 RMK A01 T03120177  RH  044%=      5-min Rain = 0
KOD1 260007Z 15009KT 31/18 A2992 RMK A01 T03120179  RH  045%=      5-min Rain = 0
KOD1 260008Z 15010KT 31/18 A2992 RMK A01 T03110180  RH  046%=      5-min Rain = 0
KOD1 260009Z 15009KT 31/18 A2992 RMK A01 T03100180  RH  046%=      5-min Rain = 0
KOD1 260010Z 16011KT 31/18 A2992 RMK A01 T03100179  RH  046%=      5-min Rain = 0
KOD1 260011Z 16012KT 31/18 A2992 RMK A01 T03100179  RH  045%=      5-min Rain = 0
KOD1 260012Z 16010KT 31/18 A2992 RMK A01 T03090178  RH  046%=      5-min Rain = 0
KOD1 260013Z 15010KT 31/18 A2992 RMK A01 T03080179  RH  046%=      5-min Rain = 0
KOD1 260014Z 15011KT 31/18 A2992 RMK A01 T03080178  RH  046%=      5-min Rain = 0
KOD1 260015Z 15013KT 31/18 A2992 RMK A01 T03090176  RH  045%=      5-min Rain = 0
KOD1 260016Z 15010KT 31/18 A2992 RMK A01 T03090177  RH  045%=      5-min Rain = 0
KOD1 260017Z 15011KT 31/18 A2992 RMK A01 T03090176  RH  045%=      5-min Rain = 0
KOD1 260018Z 15011KT 31/18 A2992 RMK A01 T03090177  RH  045%=      5-min Rain = 0
KOD1 260019Z 15012KT 31/18 A2992 RMK A01 T03080177  RH  045%=      5-min Rain = 0
KOD1 260020Z 15010KT 31/18 A2992 RMK A01 T03080177  RH  046%=      5-min Rain = 0
KOD1 260021Z 15010KT 31/18 A2992 RMK A01 T03080177  RH  046%=      5-min Rain = 0
KOD1 260022Z 15009KT 31/18 A2992 RMK A01 T03080178  RH  046%=      5-min Rain = 0
KOD1 260023Z 15011KT 31/18 A2992 RMK A01 T03070179  RH  046%=      5-min Rain = 0
KOD1 260024Z 15013KT 31/17 A2992 RMK A01 T03080174  RH  045%=      5-min Rain = 0
KOD1 260025Z 15012KT 31/18 A2992 RMK A01 T03090175  RH  045%=      5-min Rain = 0
KOD1 260026Z 15011KT 31/18 A2992 RMK A01 T03080175  RH  045%=      5-min Rain = 0
KOD1 260027Z 15012KT 31/18 A2992 RMK A01 T03090176  RH  045%=      5-min Rain = 0
KOD1 260028Z 15011KT 31/18 A2992 RMK A01 T03080178  RH  046%=      5-min Rain = 0
KOD1 260029Z 15010KT 31/18 A2993 RMK A01 T03060179  RH  046%=      5-min Rain = 0
KOD1 260030Z 15010KT 31/18 A2993 RMK A01 T03050179  RH  047%=      5-min Rain = 0
KOD1 260031Z 15010KT 31/18 A2993 RMK A01 T03050177  RH  046%=      5-min Rain = 0
KOD1 260032Z 15010KT 31/18 A2993 RMK A01 T03050179  RH  047%=      5-min Rain = 0
KOD1 260033Z 15009KT 31/18 A2993 RMK A01 T03050179  RH  047%=      5-min Rain = 0
KOD1 260034Z 15009KT 30/18 A2993 RMK A01 T03040179  RH  047%=      5-min Rain = 0
KOD1 260035Z 15009KT 30/18 A2993 RMK A01 T03040180  RH  047%=      5-min Rain = 0
KOD1 260036Z 16010KT 30/18 A2993 RMK A01 T03030179  RH  047%=      5-min Rain = 0
KOD1 260037Z 15008KT 30/18 A2993 RMK A01 T03030180  RH  048%=      5-min Rain = 0
KOD1 260038Z 15010KT 30/18 A2993 RMK A01 T03030181  RH  048%=      5-min Rain = 0
KOD1 260039Z 16012KT 30/18 A2993 RMK A01 T03030180  RH  048%=      5-min Rain = 0
KOD1 260040Z 15012KT 30/18 A2993 RMK A01 T03030181  RH  048%=      5-min Rain = 0
KOD1 260041Z 15013KT 30/18 A2993 RMK A01 T03030179  RH  047%=      5-min Rain = 0
KOD1 260042Z 15012KT 30/18 A2993 RMK A01 T03040179  RH  047%=      5-min Rain = 0
KOD1 260043Z 15012KT 30/18 A2993 RMK A01 T03040179  RH  047%=      5-min Rain = 0
KOD1 260044Z 15012KT 30/18 A2993 RMK A01 T03040180  RH  048%=      5-min Rain = 0
KOD1 260045Z 16014KT 30/18 A2993 RMK A01 T03030179  RH  047%=      5-min Rain = 0
KOD1 260046Z 15012KT 30/18 A2992 RMK A01 T03030180  RH  048%=      5-min Rain = 0
KOD1 260047Z 15013KT 30/18 A2992 RMK A01 T03030180  RH  048%=      5-min Rain = 0
KOD1 260048Z 15012KT 30/18 A2992 RMK A01 T03030180  RH  048%=      5-min Rain = 0
KOD1 260049Z 16011KT 30/18 A2993 RMK A01 T03030181  RH  048%=      5-min Rain = 0
KOD1 260050Z 16011KT 30/18 A2993 RMK A01 T03020182  RH  048%=      5-min Rain = 0
KOD1 260051Z 16010KT 30/18 A2993 RMK A01 T03020183  RH  049%=      5-min Rain = 0
KOD1 260052Z 16010KT 30/18 A2993 RMK A01 T03010182  RH  049%=      5-min Rain = 0
KOD1 260053Z 16011G16KT 30/18 A2993 RMK A01 T03010183  RH  049%=      5-min Rain = 0
KOD1 260054Z 16013KT 30/18 A2993 RMK A01 T03010181  RH  049%=      5-min Rain = 0
KOD1 260055Z 16011KT 30/18 A2993 RMK A01 T03010182  RH  049%=      5-min Rain = 0
KOD1 260056Z 16011KT 30/18 A2993 RMK A01 T03010183  RH  049%=      5-min Rain = 0
KOD1 260057Z 16011KT 30/18 A2993 RMK A01 T03000183  RH  049%=      5-min Rain = 0
KOD1 260058Z 17010KT 30/18 A2993 RMK A01 T02990183  RH  050%=      5-min Rain = 0
KOD1 260059Z 17009KT 30/18 A2993 RMK A01 T02990183  RH  050%=      5-min Rain = 0
KOD1 260100Z 17010KT 30/18 A2993 RMK A01 T02990182  RH  050%=      5-min Rain = 0
KOD1 260101Z 17011KT 30/18 A2993 RMK A01 T02990181  RH  049%=      5-min Rain = 0
KOD1 260102Z 17010KT 30/18 A2993 RMK A01 T02990182  RH  050%=      5-min Rain = 0
KOD1 260103Z 17012KT 30/18 A2993 RMK A01 T02980182  RH  050%=      5-min Rain = 0
KOD1 260104Z 17011KT 30/18 A2993 RMK A01 T02980181  RH  049%=      5-min Rain = 0
KOD1 260105Z 17012KT 30/18 A2993 RMK A01 T02980181  RH  049%=      5-min Rain = 0
KOD1 260106Z 17010KT 30/18 A2993 RMK A01 T02970181  RH  050%=      5-min Rain = 0
KOD1 260107Z 16010KT 30/18 A2993 RMK A01 T02970181  RH  050%=      5-min Rain = 0
KOD1 260108Z 16010KT 30/18 A2994 RMK A01 T02960180  RH  050%=      5-min Rain = 0
KOD1 260109Z 17010KT 30/18 A2994 RMK A01 T02970180  RH  049%=      5-min Rain = 0
KOD1 260110Z 17010KT 30/18 A2994 RMK A01 T02960181  RH  050%=      5-min Rain = 0
KOD1 260111Z 16010KT 30/18 A2994 RMK A01 T02960179  RH  049%=      5-min Rain = 0
KOD1 260112Z 16010KT 30/18 A2994 RMK A01 T02960180  RH  050%=      5-min Rain = 0
KOD1 260113Z 16011KT 30/18 A2994 RMK A01 T02960180  RH  050%=      5-min Rain = 0
KOD1 260114Z 16009KT 30/18 A2994 RMK A01 T02960180  RH  050%=      5-min Rain = 0
KOD1 260115Z 16009KT 30/18 A2994 RMK A01 T02960181  RH  050%=      5-min Rain = 0
KOD1 260116Z 17008KT 30/18 A2994 RMK A01 T02950181  RH  050%=      5-min Rain = 0
KOD1 260117Z 16008KT 29/18 A2994 RMK A01 T02940182  RH  051%=      5-min Rain = 0
KOD1 260118Z 16008KT 29/18 A2994 RMK A01 T02930182  RH  051%=      5-min Rain = 0
KOD1 260119Z 17007KT 29/18 A2994 RMK A01 T02930182  RH  051%=      5-min Rain = 0
KOD1 260120Z 16009KT 29/18 A2994 RMK A01 T02920182  RH  051%=      5-min Rain = 0
KOD1 260121Z 16008KT 29/18 A2994 RMK A01 T02920181  RH  051%=      5-min Rain = 0
KOD1 260122Z 17008KT 29/18 A2994 RMK A01 T02920181  RH  051%=      5-min Rain = 0
KOD1 260123Z 16008KT 29/18 A2994 RMK A01 T02910181  RH  051%=      5-min Rain = 0
KOD1 260124Z 17008KT 29/18 A2994 RMK A01 T02910182  RH  052%=      5-min Rain = 0
KOD1 260125Z 16008KT 29/18 A2994 RMK A01 T02920181  RH  051%=      5-min Rain = 0
KOD1 260126Z 16007KT 29/18 A2994 RMK A01 T02920182  RH  051%=      5-min Rain = 0
KOD1 260127Z 16008KT 29/18 A2995 RMK A01 T02910183  RH  052%=      5-min Rain = 0
KOD1 260128Z 16008KT 29/18 A2995 RMK A01 T02910183  RH  052%=      5-min Rain = 0
KOD1 260129Z 16009KT 29/18 A2995 RMK A01 T02910183  RH  052%=      5-min Rain = 0
KOD1 260130Z 16008KT 29/18 A2995 RMK A01 T02910183  RH  052%=      5-min Rain = 0
KOD1 260131Z 16008KT 29/18 A2995 RMK A01 T02910182  RH  052%=      5-min Rain = 0
KOD1 260132Z 16007KT 29/18 A2995 RMK A01 T02910183  RH  052%=      5-min Rain = 0
KOD1 260133Z 16008KT 29/18 A2995 RMK A01 T02910184  RH  052%=      5-min Rain = 0
KOD1 260134Z 16009KT 29/18 A2995 RMK A01 T02910183  RH  052%=      5-min Rain = 0
KOD1 260135Z 16008KT 29/18 A2995 RMK A01 T02910183  RH  052%=      5-min Rain = 0
KOD1 260136Z 16009KT 29/18 A2995 RMK A01 T02910184  RH  052%=      5-min Rain = 0
KOD1 260137Z 16008KT 29/18 A2995 RMK A01 T02910184  RH  052%=      5-min Rain = 0
KOD1 260138Z 16009KT 29/18 A2995 RMK A01 T02920184  RH  052%=      5-min Rain = 0
KOD1 260139Z 16008KT 29/19 A2995 RMK A01 T02920185  RH  053%=      5-min Rain = 0
KOD1 260140Z 16009KT 29/19 A2995 RMK A01 T02920185  RH  053%=      5-min Rain = 0
KOD1 260141Z 16009KT 29/19 A2996 RMK A01 T02920185  RH  052%=      5-min Rain = 0
KOD1 260142Z 16008KT 29/19 A2996 RMK A01 T02920186  RH  053%=      5-min Rain = 0
KOD1 260143Z 16009KT 29/19 A2996 RMK A01 T02920185  RH  053%=      5-min Rain = 0
KOD1 260144Z 16009KT 29/19 A2996 RMK A01 T02910185  RH  053%=      5-min Rain = 0
KOD1 260145Z 15009KT 29/19 A2996 RMK A01 T02920185  RH  053%=      5-min Rain = 0
KOD1 260146Z 16008KT 29/19 A2996 RMK A01 T02910186  RH  053%=      5-min Rain = 0
KOD1 260147Z 15008KT 29/19 A2996 RMK A01 T02910186  RH  053%=      5-min Rain = 0
KOD1 260148Z 16009KT 29/19 A2996 RMK A01 T02900185  RH  053%=      5-min Rain = 0
KOD1 260149Z 16007KT 29/19 A2997 RMK A01 T02910186  RH  053%=      5-min Rain = 0
KOD1 260150Z 15008KT 29/19 A2997 RMK A01 T02900187  RH  054%=      5-min Rain = 0
KOD1 260151Z 16008KT 29/19 A2997 RMK A01 T02900186  RH  053%=      5-min Rain = 0
KOD1 260152Z 16009KT 29/19 A2997 RMK A01 T02900186  RH  053%=      5-min Rain = 0
KOD1 260153Z 15010KT 29/19 A2997 RMK A01 T02900185  RH  053%=      5-min Rain = 0
KOD1 260154Z 15008KT 29/19 A2997 RMK A01 T02910186  RH  053%=      5-min Rain = 0
KOD1 260155Z 16008KT 29/19 A2997 RMK A01 T02910186  RH  053%=      5-min Rain = 0
KOD1 260156Z 16009KT 29/19 A2997 RMK A01 T02910186  RH  053%=      5-min Rain = 0
KOD1 260157Z 16009KT 29/19 A2997 RMK A01 T02900186  RH  053%=      5-min Rain = 0
KOD1 260158Z 15008KT 29/19 A2997 RMK A01 T02900187  RH  054%=      5-min Rain = 0
KOD1 260159Z 16009KT 29/19 A2997 RMK A01 T02900187  RH  054%=      5-min Rain = 0
KOD1 260200Z 16009KT 29/19 A2997 RMK A01 T02900186  RH  054%=      5-min Rain = 0
KOD1 260201Z 15008KT 29/19 A2997 RMK A01 T02900187  RH  054%=      5-min Rain = 0
KOD1 260202Z 16007KT 29/19 A2997 RMK A01 T02890187  RH  054%=      5-min Rain = 0
KOD1 260203Z 15009KT 29/19 A2997 RMK A01 T02890186  RH  054%=      5-min Rain = 0
KOD1 260204Z 15007KT 29/19 A2997 RMK A01 T02890186  RH  054%=      5-min Rain = 0
KOD1 260205Z 15007KT 29/19 A2997 RMK A01 T02890187  RH  054%=      5-min Rain = 0
KOD1 260206Z 15008KT 29/19 A2997 RMK A01 T02890186  RH  054%=      5-min Rain = 0
KOD1 260207Z 15008KT 29/19 A2998 RMK A01 T02890187  RH  054%=      5-min Rain = 0
KOD1 260208Z 15006KT 29/19 A2998 RMK A01 T02890187  RH  054%=      5-min Rain = 0
KOD1 260209Z 15005KT 29/19 A2998 RMK A01 T02880188  RH  055%=      5-min Rain = 0
KOD1 260210Z 15007KT 29/19 A2998 RMK A01 T02880188  RH  055%=      5-min Rain = 0
KOD1 260211Z 15007KT 29/19 A2998 RMK A01 T02870187  RH  055%=      5-min Rain = 0
KOD1 260212Z 15005KT 29/19 A2998 RMK A01 T02880188  RH  055%=      5-min Rain = 0
KOD1 260213Z 15005KT 29/19 A2998 RMK A01 T02870189  RH  055%=      5-min Rain = 0
KOD1 260214Z 16006KT 29/19 A2998 RMK A01 T02860189  RH  056%=      5-min Rain = 0
KOD1 260215Z 15006KT 29/19 A2999 RMK A01 T02850189  RH  056%=      5-min Rain = 0
KOD1 260216Z 16006KT 29/19 A2999 RMK A01 T02850190  RH  056%=      5-min Rain = 0
KOD1 260217Z 15005KT 28/19 A2999 RMK A01 T02840189  RH  057%=      5-min Rain = 0
KOD1 260218Z 16006KT 28/19 A2999 RMK A01 T02840190  RH  057%=      5-min Rain = 0
KOD1 260219Z 15005KT 28/19 A2999 RMK A01 T02830190  RH  057%=      5-min Rain = 0
KOD1 260220Z 15005KT 28/19 A2999 RMK A01 T02820190  RH  057%=      5-min Rain = 0
KOD1 260221Z 16005KT 28/19 A2999 RMK A01 T02820190  RH  058%=      5-min Rain = 0
KOD1 260222Z 16004KT 28/19 A2999 RMK A01 T02810191  RH  058%=      5-min Rain = 0
KOD1 260223Z 16005KT 28/19 A2999 RMK A01 T02810192  RH  058%=      5-min Rain = 0
KOD1 260224Z 16005KT 28/19 A30 RMK A01 T02800192  RH  059%=      5-min Rain = 0
KOD1 260225Z 17004KT 28/19 A30 RMK A01 T02800192  RH  059%=      5-min Rain = 0
KOD1 260226Z 16005KT 28/19 A30 RMK A01 T02800191  RH  059%=      5-min Rain = 0
KOD1 260227Z 17005KT 28/19 A30 RMK A01 T02800193  RH  059%=      5-min Rain = 0
KOD1 260228Z 17005KT 28/19 A30 RMK A01 T02800192  RH  059%=      5-min Rain = 0
KOD1 260229Z 18003KT 28/19 A30 RMK A01 T02800194  RH  060%=      5-min Rain = 0
KOD1 260230Z 18002KT 28/19 A3001 RMK A01 T02790193  RH  060%=      5-min Rain = 0
KOD1 260231Z 17004KT 28/19 A3001 RMK A01 T02780193  RH  060%=      5-min Rain = 0
KOD1 260232Z 18003KT 28/19 A3001 RMK A01 T02790192  RH  059%=      5-min Rain = 0
KOD1 260233Z 18004KT 28/19 A3001 RMK A01 T02790192  RH  059%=      5-min Rain = 0
KOD1 260234Z 18004KT 28/19 A3001 RMK A01 T02790193  RH  059%=      5-min Rain = 0
KOD1 260235Z 17003KT 28/19 A3001 RMK A01 T02790194  RH  060%=      5-min Rain = 0
KOD1 260236Z 17004KT 28/20 A3001 RMK A01 T02780195  RH  060%=      5-min Rain = 0
KOD1 260237Z 17005KT 28/19 A3001 RMK A01 T02780194  RH  060%=      5-min Rain = 0
KOD1 260238Z 17004KT 28/20 A3001 RMK A01 T02770195  RH  061%=      5-min Rain = 0
KOD1 260239Z 17004KT 28/19 A3001 RMK A01 T02760194  RH  061%=      5-min Rain = 0
KOD1 260240Z 17005KT 28/20 A3001 RMK A01 T02750195  RH  062%=      5-min Rain = 0
KOD1 260241Z 17005KT 27/20 A3001 RMK A01 T02740195  RH  062%=      5-min Rain = 0
KOD1 260242Z 18005KT 27/20 A3001 RMK A01 T02740195  RH  062%=      5-min Rain = 0
KOD1 260243Z 18005KT 27/20 A3001 RMK A01 T02730195  RH  062%=      5-min Rain = 0
KOD1 260244Z 18005KT 27/19 A3001 RMK A01 T02730194  RH  062%=      5-min Rain = 0
KOD1 260245Z 19005KT 27/20 A3002 RMK A01 T02730195  RH  062%=      5-min Rain = 0
KOD1 260246Z 20004KT 27/20 A3002 RMK A01 T02730195  RH  063%=      5-min Rain = 0
KOD1 260247Z 21004KT 27/20 A3002 RMK A01 T02720196  RH  063%=      5-min Rain = 0
KOD1 260248Z 22004KT 27/20 A3002 RMK A01 T02700197  RH  064%=      5-min Rain = 0
KOD1 260249Z 22004KT 27/20 A3002 RMK A01 T02690197  RH  065%=      5-min Rain = 0
KOD1 260250Z 23003KT 27/19 A3002 RMK A01 T02690194  RH  064%=      5-min Rain = 0
KOD1 260251Z 24003KT 27/19 A3002 RMK A01 T02690194  RH  063%=      5-min Rain = 0
KOD1 260252Z 23003KT 27/20 A3003 RMK A01 T02690195  RH  064%=      5-min Rain = 0
KOD1 260253Z 24003KT 27/20 A3003 RMK A01 T02680198  RH  065%=      5-min Rain = 0
KOD1 260254Z 24003KT 27/20 A3003 RMK A01 T02670197  RH  065%=      5-min Rain = 0
KOD1 260255Z 24003KT 27/20 A3003 RMK A01 T02670195  RH  064%=      5-min Rain = 0
KOD1 260256Z 24003KT 27/20 A3003 RMK A01 T02680197  RH  065%=      5-min Rain = 0
KOD1 260257Z 24003KT 27/20 A3003 RMK A01 T02670197  RH  065%=      5-min Rain = 0
KOD1 260258Z 24003KT 27/20 A3003 RMK A01 T02670196  RH  065%=      5-min Rain = 0
KOD1 260259Z 23003KT 27/20 A3003 RMK A01 T02670197  RH  065%=      5-min Rain = 0
KOD1 260300Z 23003KT 27/20 A3003 RMK A01 T02670198  RH  066%=      5-min Rain = 0
KOD1 260301Z 22004KT 27/20 A3003 RMK A01 T02660199  RH  066%=      5-min Rain = 0
KOD1 260302Z 22003KT 27/20 A3003 RMK A01 T02650198  RH  066%=      5-min Rain = 0
KOD1 260303Z 23003KT 27/20 A3003 RMK A01 T02660198  RH  066%=      5-min Rain = 0
KOD1 260304Z 23003KT 27/20 A3003 RMK A01 T02660199  RH  067%=      5-min Rain = 0
KOD1 260305Z 22003KT 27/20 A3003 RMK A01 T02650199  RH  067%=      5-min Rain = 0
KOD1 260306Z 22004KT 27/20 A3003 RMK A01 T02650200  RH  067%=      5-min Rain = 0
KOD1 260307Z 22003KT 27/20 A3003 RMK A01 T02650201  RH  068%=      5-min Rain = 0
KOD1 260308Z 22004KT 26/20 A3003 RMK A01 T02640201  RH  068%=      5-min Rain = 0
KOD1 260309Z 22004KT 26/20 A3003 RMK A01 T02630202  RH  069%=      5-min Rain = 0
KOD1 260310Z 22005KT 26/20 A3004 RMK A01 T02630203  RH  070%=      5-min Rain = 0
KOD1 260311Z 23004KT 26/20 A3004 RMK A01 T02630204  RH  070%=      5-min Rain = 0
KOD1 260312Z 24005KT 26/21 A3004 RMK A01 T02630205  RH  070%=      5-min Rain = 0
KOD1 260313Z 25005KT 26/21 A3004 RMK A01 T02620207  RH  072%=      5-min Rain = 0
KOD1 260314Z 26006KT 26/21 A3004 RMK A01 T02610205  RH  071%=      5-min Rain = 0
KOD1 260315Z 27008KT 26/21 A3005 RMK A01 T02600205  RH  071%=      5-min Rain = 0
KOD1 260316Z 28011KT 26/20 A3005 RMK A01 T02600204  RH  071%=      5-min Rain = 0
KOD1 260317Z 28013KT 26/20 A3006 RMK A01 T02600200  RH  070%=      5-min Rain = 0
KOD1 260318Z 29013KT 26/20 A3006 RMK A01 T02620195  RH  066%=      5-min Rain = 0
KOD1 260319Z 29013KT 27/18 A3006 RMK A01 T02660183  RH  060%=      5-min Rain = 0
KOD1 260320Z 30013G18KT 27/18 A3006 RMK A01 T02690176  RH  057%=      5-min Rain = 0
KOD1 260321Z 30016G22KT 27/17 A3006 RMK A01 T02710166  RH  053%=      5-min Rain = 0
KOD1 260322Z 31023KT 27/15 A3006 RMK A01 T02720152  RH  048%=      5-min Rain = 0
KOD1 260323Z 31019KT 27/15 A3006 RMK A01 T02730146  RH  046%=      5-min Rain = 0
KOD1 260324Z 31019G24KT 27/15 A3007 RMK A01 T02730145  RH  045%=      5-min Rain = 0
KOD1 260325Z 31016G21KT 27/14 A3007 RMK A01 T02720144  RH  045%=      5-min Rain = 0
KOD1 260326Z 31021KT 27/14 A3007 RMK A01 T02710142  RH  045%=      5-min Rain = 0
KOD1 260327Z 30019G24KT 27/14 A3008 RMK A01 T02710140  RH  044%=      5-min Rain = 0
KOD1 260328Z 31017G23KT 27/14 A3008 RMK A01 T02710141  RH  045%=      5-min Rain = 0
KOD1 260329Z 31020KT 27/14 A3008 RMK A01 T02690144  RH  046%=      5-min Rain = 0
KOD1 260330Z 31017KT 27/15 A3008 RMK A01 T02670146  RH  047%=      5-min Rain = 0
KOD1 260331Z 30022KT 27/15 A3008 RMK A01 T02650146  RH  048%=      5-min Rain = 0
KOD1 260332Z 31020G27KT 26/15 A3008 RMK A01 T02630146  RH  049%=      5-min Rain = 0
KOD1 260333Z 31023G28KT 26/15 A3008 RMK A01 T02610146  RH  049%=      5-min Rain = 0
KOD1 260334Z 31020KT 26/15 A3008 RMK A01 T02590145  RH  050%=      5-min Rain = 0
KOD1 260335Z 30017KT 26/15 A3008 RMK A01 T02580146  RH  050%=      5-min Rain = 0
KOD1 260336Z 31016KT 26/15 A3008 RMK A01 T02560145  RH  050%=      5-min Rain = 0
KOD1 260337Z 30015KT 26/14 A3008 RMK A01 T02550143  RH  050%=      5-min Rain = 0
KOD1 260338Z 30013KT 26/14 A3008 RMK A01 T02550143  RH  050%=      5-min Rain = 0
KOD1 260339Z 30015KT 26/14 A3008 RMK A01 T02550142  RH  050%=      5-min Rain = 0
KOD1 260340Z 30020KT 26/14 A3008 RMK A01 T02560137  RH  048%=      5-min Rain = 0
KOD1 260341Z 30020G25KT 26/14 A3008 RMK A01 T02590136  RH  046%=      5-min Rain = 0
KOD1 260342Z 30020KT 26/14 A3008 RMK A01 T02620136  RH  046%=      5-min Rain = 0
KOD1 260343Z 29015KT 26/13 A3008 RMK A01 T02640133  RH  044%=      5-min Rain = 0
KOD1 260344Z 29014KT 27/13 A3008 RMK A01 T02650133  RH  044%=      5-min Rain = 0
KOD1 260345Z 30011KT 26/13 A3008 RMK A01 T02640134  RH  045%=      5-min Rain = 0
KOD1 260346Z 29013KT 26/14 A3008 RMK A01 T02630135  RH  045%=      5-min Rain = 0
KOD1 260347Z 30012KT 26/13 A3007 RMK A01 T02630134  RH  045%=      5-min Rain = 0
KOD1 260348Z 29010KT 26/14 A3007 RMK A01 T02620136  RH  046%=      5-min Rain = 0
KOD1 260349Z 30011KT 26/14 A3007 RMK A01 T02600138  RH  047%=      5-min Rain = 0
KOD1 260350Z 30012KT 26/14 A3007 RMK A01 T02590142  RH  049%=      5-min Rain = 0
KOD1 260351Z 30012KT 26/15 A3007 RMK A01 T02560145  RH  050%=      5-min Rain = 0
KOD1 260352Z 30015KT 25/15 A3006 RMK A01 T02540147  RH  052%=      5-min Rain = 0
KOD1 260353Z 29012KT 25/15 A3006 RMK A01 T02520148  RH  053%=      5-min Rain = 0
KOD1 260354Z 30011KT 25/15 A3006 RMK A01 T02510148  RH  053%=      5-min Rain = 0
KOD1 260355Z 29013KT 25/15 A3006 RMK A01 T02500148  RH  053%=      5-min Rain = 0
KOD1 260356Z 30013KT 25/15 A3005 RMK A01 T02500147  RH  053%=      5-min Rain = 0
KOD1 260357Z 30011KT 25/15 A3005 RMK A01 T02500147  RH  053%=      5-min Rain = 0
KOD1 260358Z 30013KT 25/15 A3005 RMK A01 T02500146  RH  053%=      5-min Rain = 0
KOD1 260359Z 30011KT 25/15 A3005 RMK A01 T02490147  RH  053%=      5-min Rain = 0
KOD1 260400Z 30009KT 25/15 A3005 RMK A01 T02480148  RH  054%=      5-min Rain = 0
KOD1 260401Z 30009KT 25/15 A3005 RMK A01 T02470147  RH  054%=      5-min Rain = 0
KOD1 260402Z 29007KT 25/15 A3005 RMK A01 T02460148  RH  054%=      5-min Rain = 0
KOD1 260403Z 29007KT 25/15 A3005 RMK A01 T02450148  RH  055%=      5-min Rain = 0
KOD1 260404Z 29005KT 25/15 A3005 RMK A01 T02450146  RH  054%=      5-min Rain = 0
KOD1 260405Z 29004KT 25/15 A3005 RMK A01 T02450147  RH  054%=      5-min Rain = 0
KOD1 260406Z 29005KT 24/15 A3005 RMK A01 T02440146  RH  054%=      5-min Rain = 0
KOD1 260407Z 29004KT 24/15 A3005 RMK A01 T02440146  RH  054%=      5-min Rain = 0
KOD1 260408Z 30004KT 24/15 A3004 RMK A01 T02440147  RH  055%=      5-min Rain = 0
KOD1 260409Z 29005KT 24/15 A3004 RMK A01 T02430145  RH  054%=      5-min Rain = 0
KOD1 260410Z 29005KT 24/14 A3004 RMK A01 T02430144  RH  054%=      5-min Rain = 0
KOD1 260411Z 29004KT 24/14 A3004 RMK A01 T02430144  RH  054%=      5-min Rain = 0
KOD1 260412Z 28003KT 24/14 A3004 RMK A01 T02430143  RH  054%=      5-min Rain = 0
KOD1 260413Z 27004KT 24/14 A3004 RMK A01 T02430143  RH  054%=      5-min Rain = 0
KOD1 260414Z 25004KT 24/14 A3004 RMK A01 T02430144  RH  054%=      5-min Rain = 0
KOD1 260415Z 22004KT 24/15 A3004 RMK A01 T02420147  RH  055%=      5-min Rain = 0
KOD1 260416Z 22005KT 24/15 A3004 RMK A01 T02410147  RH  056%=      5-min Rain = 0
KOD1 260417Z 23005KT 24/15 A3003 RMK A01 T02400147  RH  056%=      5-min Rain = 0
KOD1 260418Z 24004KT 24/15 A3003 RMK A01 T02400145  RH  055%=      5-min Rain = 0
KOD1 260419Z 25003KT 24/14 A3003 RMK A01 T02400144  RH  055%=      5-min Rain = 0
KOD1 260420Z 24003KT 24/15 A3003 RMK A01 T02410145  RH  055%=      5-min Rain = 0
KOD1 260421Z 23003KT 24/15 A3003 RMK A01 T02410145  RH  055%=      5-min Rain = 0
KOD1 260422Z 21003KT 24/15 A3003 RMK A01 T02400146  RH  056%=      5-min Rain = 0
KOD1 260423Z 19004KT 24/15 A3003 RMK A01 T02400150  RH  057%=      5-min Rain = 0
KOD1 260424Z 19006KT 24/15 A3002 RMK A01 T02390152  RH  058%=      5-min Rain = 0
KOD1 260425Z 18006KT 24/15 A3002 RMK A01 T02380150  RH  058%=      5-min Rain = 0
KOD1 260426Z 19006KT 24/15 A3002 RMK A01 T02370149  RH  058%=      5-min Rain = 0
KOD1 260427Z 20006KT 24/15 A3002 RMK A01 T02380147  RH  057%=      5-min Rain = 0
KOD1 260428Z 20006KT 24/15 A3002 RMK A01 T02380146  RH  056%=      5-min Rain = 0
KOD1 260429Z 20006KT 24/15 A3001 RMK A01 T02390145  RH  056%=      5-min Rain = 0
KOD1 260430Z 20006KT 24/15 A3001 RMK A01 T02390145  RH  055%=      5-min Rain = 0
KOD1 260431Z 21006KT 24/14 A3001 RMK A01 T02400144  RH  055%=      5-min Rain = 0
KOD1 260432Z 20006KT 24/14 A3001 RMK A01 T02410144  RH  055%=      5-min Rain = 0
KOD1 260433Z 20006KT 24/14 A3001 RMK A01 T02410144  RH  055%=      5-min Rain = 0
KOD1 260434Z 19006KT 24/15 A3001 RMK A01 T02410146  RH  055%=      5-min Rain = 0
KOD1 260435Z 18006KT 24/15 A3001 RMK A01 T02400146  RH  056%=      5-min Rain = 0
KOD1 260436Z 18007KT 24/15 A3001 RMK A01 T02400146  RH  056%=      5-min Rain = 0
KOD1 260437Z 18007KT 24/15 A3001 RMK A01 T02400146  RH  056%=      5-min Rain = 0
KOD1 260438Z 18007KT 24/14 A3001 RMK A01 T02400144  RH  055%=      5-min Rain = 0
KOD1 260439Z 19007KT 24/14 A3001 RMK A01 T02410143  RH  054%=      5-min Rain = 0
KOD1 260440Z 18007KT 24/14 A3001 RMK A01 T02420144  RH  054%=      5-min Rain = 0
KOD1 260441Z 18008KT 24/15 A30 RMK A01 T02420146  RH  055%=      5-min Rain = 0
KOD1 260442Z 17008KT 24/15 A30 RMK A01 T02420145  RH  055%=      5-min Rain = 0
KOD1 260443Z 17008KT 24/15 A30 RMK A01 T02420145  RH  055%=      5-min Rain = 0
KOD1 260444Z 17008KT 24/15 A30 RMK A01 T02420145  RH  055%=      5-min Rain = 0
KOD1 260445Z 18008KT 24/15 A30 RMK A01 T02420147  RH  055%=      5-min Rain = 0
KOD1 260446Z 18009KT 24/15 A30 RMK A01 T02410146  RH  055%=      5-min Rain = 0
KOD1 260447Z 19008KT 24/15 A30 RMK A01 T02410145  RH  055%=      5-min Rain = 0
KOD1 260448Z 18008KT 24/14 A2999 RMK A01 T02420144  RH  054%=      5-min Rain = 0
KOD1 260449Z 18008KT 24/14 A2999 RMK A01 T02420143  RH  054%=      5-min Rain = 0
KOD1 260450Z 18008KT 24/14 A2999 RMK A01 T02430143  RH  054%=      5-min Rain = 0
KOD1 260451Z 18008KT 24/14 A2999 RMK A01 T02430143  RH  053%=      5-min Rain = 0
KOD1 260452Z 18008KT 24/14 A2999 RMK A01 T02440143  RH  053%=      5-min Rain = 0
KOD1 260453Z 18009KT 24/15 A2999 RMK A01 T02440145  RH  054%=      5-min Rain = 0
KOD1 260454Z 18008KT 24/15 A2999 RMK A01 T02440145  RH  054%=      5-min Rain = 0
KOD1 260455Z 18008KT 24/15 A2999 RMK A01 T02430146  RH  055%=      5-min Rain = 0
KOD1 260456Z 18009KT 24/15 A2999 RMK A01 T02430147  RH  055%=      5-min Rain = 0
KOD1 260457Z 18009KT 24/15 A2999 RMK A01 T02420147  RH  055%=      5-min Rain = 0
KOD1 260458Z 19009KT 24/15 A2999 RMK A01 T02430146  RH  055%=      5-min Rain = 0
KOD1 260459Z 19009KT 24/14 A2999 RMK A01 T02440144  RH  054%=      5-min Rain = 0

Page generated in 0.1455 seconds.